Observation data for Amarillo 15 North Northwest on 07/03/2020      Previous  Date       Current Mesonet Observations  Soil Data  Daily Summary Page  Observations in Plain Language
KAM3 030500Z 16014KT 24/16 A3006 RMK A01 T02370157  RH  061%=      5-min Rain = 0
KAM3 030501Z 16013KT 24/16 A3006 RMK A01 T02370158  RH  061%=      5-min Rain = 0
KAM3 030502Z 16013KT 24/16 A3006 RMK A01 T02370158  RH  061%=      5-min Rain = 0
KAM3 030503Z 16016KT 24/16 A3006 RMK A01 T02370159  RH  061%=      5-min Rain = 0
KAM3 030504Z 16014KT 24/16 A3006 RMK A01 T02370159  RH  062%=      5-min Rain = 0
KAM3 030505Z 16016KT 24/16 A3006 RMK A01 T02370159  RH  062%=      5-min Rain = 0
KAM3 030506Z 16014KT 24/16 A3006 RMK A01 T02370159  RH  062%=      5-min Rain = 0
KAM3 030507Z 16016KT 24/16 A3006 RMK A01 T02370159  RH  062%=      5-min Rain = 0
KAM3 030508Z 16013KT 24/16 A3006 RMK A01 T02380160  RH  062%=      5-min Rain = 0
KAM3 030509Z 16015KT 24/16 A3006 RMK A01 T02370160  RH  062%=      5-min Rain = 0
KAM3 030510Z 17014KT 24/16 A3006 RMK A01 T02370160  RH  062%=      5-min Rain = 0
KAM3 030511Z 16013KT 24/16 A3006 RMK A01 T02370160  RH  062%=      5-min Rain = 0
KAM3 030512Z 16012KT 24/16 A3006 RMK A01 T02370160  RH  062%=      5-min Rain = 0
KAM3 030513Z 16014KT 24/16 A3006 RMK A01 T02370161  RH  062%=      5-min Rain = 0
KAM3 030514Z 16014G19KT 24/16 A3006 RMK A01 T02370162  RH  063%=      5-min Rain = 0
KAM3 030515Z 16014KT 24/16 A3006 RMK A01 T02370162  RH  063%=      5-min Rain = 0
KAM3 030516Z 16014KT 24/16 A3006 RMK A01 T02380163  RH  063%=      5-min Rain = 0
KAM3 030517Z 16014KT 24/16 A3006 RMK A01 T02380162  RH  063%=      5-min Rain = 0
KAM3 030518Z 16011KT 24/16 A3006 RMK A01 T02380163  RH  063%=      5-min Rain = 0
KAM3 030519Z 16012KT 24/16 A3006 RMK A01 T02380162  RH  063%=      5-min Rain = 0
KAM3 030520Z 16013KT 24/16 A3006 RMK A01 T02380163  RH  063%=      5-min Rain = 0
KAM3 030521Z 16012KT 24/16 A3006 RMK A01 T02380163  RH  063%=      5-min Rain = 0
KAM3 030522Z 16013KT 24/16 A3006 RMK A01 T02380163  RH  063%=      5-min Rain = 0
KAM3 030523Z 16011KT 24/16 A3006 RMK A01 T02380164  RH  063%=      5-min Rain = 0
KAM3 030524Z 16013KT 24/16 A3006 RMK A01 T02380163  RH  063%=      5-min Rain = 0
KAM3 030525Z 16012KT 24/16 A3006 RMK A01 T02380164  RH  063%=      5-min Rain = 0
KAM3 030526Z 16010KT 24/16 A3006 RMK A01 T02380164  RH  063%=      5-min Rain = 0
KAM3 030527Z 16011KT 24/16 A3006 RMK A01 T02380164  RH  063%=      5-min Rain = 0
KAM3 030528Z 15012KT 24/16 A3006 RMK A01 T02370164  RH  063%=      5-min Rain = 0
KAM3 030529Z 15012KT 24/16 A3006 RMK A01 T02370164  RH  063%=      5-min Rain = 0
KAM3 030530Z 15012KT 24/16 A3006 RMK A01 T02370164  RH  063%=      5-min Rain = 0
KAM3 030531Z 16010KT 24/16 A3006 RMK A01 T02370164  RH  063%=      5-min Rain = 0
KAM3 030532Z 15011KT 24/16 A3006 RMK A01 T02370164  RH  063%=      5-min Rain = 0
KAM3 030533Z 15010KT 24/16 A3006 RMK A01 T02370164  RH  063%=      5-min Rain = 0
KAM3 030534Z 16009KT 24/16 A3006 RMK A01 T02370164  RH  064%=      5-min Rain = 0
KAM3 030535Z 15011KT 24/16 A3006 RMK A01 T02360164  RH  064%=      5-min Rain = 0
KAM3 030536Z 15012KT 24/16 A3006 RMK A01 T02360164  RH  064%=      5-min Rain = 0
KAM3 030537Z 15010KT 24/16 A3006 RMK A01 T02360164  RH  064%=      5-min Rain = 0
KAM3 030538Z 15010KT 24/16 A3006 RMK A01 T02360164  RH  064%=      5-min Rain = 0
KAM3 030539Z 15011KT 24/16 A3006 RMK A01 T02360164  RH  064%=      5-min Rain = 0
KAM3 030540Z 15009KT 24/16 A3006 RMK A01 T02360164  RH  064%=      5-min Rain = 0
KAM3 030541Z 14010KT 24/17 A3006 RMK A01 T02360165  RH  064%=      5-min Rain = 0
KAM3 030542Z 14009KT 24/16 A3006 RMK A01 T02350164  RH  064%=      5-min Rain = 0
KAM3 030543Z 14009KT 24/16 A3006 RMK A01 T02350164  RH  064%=      5-min Rain = 0
KAM3 030544Z 14009KT 24/16 A3006 RMK A01 T02350164  RH  064%=      5-min Rain = 0
KAM3 030545Z 15010KT 24/17 A3006 RMK A01 T02350165  RH  065%=      5-min Rain = 0
KAM3 030546Z 14011KT 24/17 A3006 RMK A01 T02350165  RH  065%=      5-min Rain = 0
KAM3 030547Z 14011KT 24/17 A3006 RMK A01 T02350165  RH  065%=      5-min Rain = 0
KAM3 030548Z 15009KT 24/17 A3006 RMK A01 T02350165  RH  065%=      5-min Rain = 0
KAM3 030549Z 15010KT 24/17 A3006 RMK A01 T02350165  RH  065%=      5-min Rain = 0
KAM3 030550Z 14010KT 24/17 A3006 RMK A01 T02350165  RH  065%=      5-min Rain = 0
KAM3 030551Z 15009KT 24/17 A3006 RMK A01 T02360166  RH  065%=      5-min Rain = 0
KAM3 030552Z 15009KT 24/17 A3006 RMK A01 T02350166  RH  065%=      5-min Rain = 0
KAM3 030553Z 15010KT 23/17 A3006 RMK A01 T02340165  RH  065%=      5-min Rain = 0
KAM3 030554Z 15009KT 24/17 A3006 RMK A01 T02350166  RH  065%=      5-min Rain = 0
KAM3 030555Z 14010KT 23/17 A3006 RMK A01 T02340166  RH  066%=      5-min Rain = 0
KAM3 030556Z 14009KT 23/17 A3006 RMK A01 T02340166  RH  066%=      5-min Rain = 0
KAM3 030557Z 14009KT 23/17 A3006 RMK A01 T02340166  RH  066%=      5-min Rain = 0
KAM3 030558Z 14008KT 23/17 A3006 RMK A01 T02340166  RH  066%=      5-min Rain = 0
KAM3 030559Z 14010KT 23/17 A3006 RMK A01 T02330166  RH  066%=      5-min Rain = 0
KAM3 030600Z 15009KT 23/17 A3006 RMK A01 T02330167  RH  066%=      5-min Rain = 0
KAM3 030601Z 15009KT 23/17 A3006 RMK A01 T02330167  RH  066%=      5-min Rain = 0
KAM3 030602Z 14008KT 23/17 A3006 RMK A01 T02330167  RH  067%=      5-min Rain = 0
KAM3 030603Z 15009KT 23/17 A3006 RMK A01 T02330168  RH  067%=      5-min Rain = 0
KAM3 030604Z 15011KT 23/17 A3006 RMK A01 T02330168  RH  067%=      5-min Rain = 0
KAM3 030605Z 15011KT 23/17 A3005 RMK A01 T02330168  RH  067%=      5-min Rain = 0
KAM3 030606Z 15011KT 23/17 A3005 RMK A01 T02330169  RH  067%=      5-min Rain = 0
KAM3 030607Z 15010KT 23/17 A3005 RMK A01 T02340169  RH  067%=      5-min Rain = 0
KAM3 030608Z 15011KT 23/17 A3005 RMK A01 T02340169  RH  067%=      5-min Rain = 0
KAM3 030609Z 15010KT 23/17 A3005 RMK A01 T02340169  RH  067%=      5-min Rain = 0
KAM3 030610Z 15011KT 23/17 A3005 RMK A01 T02340169  RH  067%=      5-min Rain = 0
KAM3 030611Z 15009KT 23/17 A3005 RMK A01 T02340169  RH  067%=      5-min Rain = 0
KAM3 030612Z 16010KT 23/17 A3005 RMK A01 T02340169  RH  067%=      5-min Rain = 0
KAM3 030613Z 15009KT 23/17 A3005 RMK A01 T02340170  RH  067%=      5-min Rain = 0
KAM3 030614Z 15010KT 23/17 A3005 RMK A01 T02330170  RH  068%=      5-min Rain = 0
KAM3 030615Z 16010KT 23/17 A3005 RMK A01 T02330170  RH  068%=      5-min Rain = 0
KAM3 030616Z 16010KT 23/17 A3005 RMK A01 T02330170  RH  068%=      5-min Rain = 0
KAM3 030617Z 16010KT 23/17 A3005 RMK A01 T02330170  RH  068%=      5-min Rain = 0
KAM3 030618Z 16010KT 23/17 A3005 RMK A01 T02330170  RH  068%=      5-min Rain = 0
KAM3 030619Z 16011KT 23/17 A3005 RMK A01 T02330170  RH  068%=      5-min Rain = 0
KAM3 030620Z 16010KT 23/17 A3005 RMK A01 T02330170  RH  068%=      5-min Rain = 0
KAM3 030621Z 16011KT 23/17 A3005 RMK A01 T02330170  RH  068%=      5-min Rain = 0
KAM3 030622Z 16012KT 23/17 A3005 RMK A01 T02330170  RH  068%=      5-min Rain = 0
KAM3 030623Z 16011KT 23/17 A3005 RMK A01 T02340171  RH  068%=      5-min Rain = 0
KAM3 030624Z 16012KT 23/17 A3005 RMK A01 T02340170  RH  067%=      5-min Rain = 0
KAM3 030625Z 16011KT 24/17 A3005 RMK A01 T02350171  RH  067%=      5-min Rain = 0
KAM3 030626Z 16012KT 24/17 A3005 RMK A01 T02350171  RH  067%=      5-min Rain = 0
KAM3 030627Z 16011KT 24/17 A3005 RMK A01 T02350171  RH  067%=      5-min Rain = 0
KAM3 030628Z 16013KT 24/17 A3005 RMK A01 T02360171  RH  067%=      5-min Rain = 0
KAM3 030629Z 16013KT 24/17 A3005 RMK A01 T02360171  RH  067%=      5-min Rain = 0
KAM3 030630Z 16012KT 24/17 A3005 RMK A01 T02360171  RH  067%=      5-min Rain = 0
KAM3 030631Z 16011KT 24/17 A3004 RMK A01 T02360171  RH  067%=      5-min Rain = 0
KAM3 030632Z 16011KT 24/17 A3005 RMK A01 T02360171  RH  067%=      5-min Rain = 0
KAM3 030633Z 16011KT 24/17 A3004 RMK A01 T02350171  RH  067%=      5-min Rain = 0
KAM3 030634Z 16013KT 24/17 A3005 RMK A01 T02350171  RH  067%=      5-min Rain = 0
KAM3 030635Z 16011KT 24/17 A3005 RMK A01 T02360171  RH  067%=      5-min Rain = 0
KAM3 030636Z 16011KT 24/17 A3005 RMK A01 T02360171  RH  067%=      5-min Rain = 0
KAM3 030637Z 16010KT 24/17 A3005 RMK A01 T02360171  RH  067%=      5-min Rain = 0
KAM3 030638Z 16009KT 24/17 A3005 RMK A01 T02360171  RH  067%=      5-min Rain = 0
KAM3 030639Z 16010KT 24/17 A3005 RMK A01 T02350171  RH  067%=      5-min Rain = 0
KAM3 030640Z 16010KT 24/17 A3005 RMK A01 T02350171  RH  067%=      5-min Rain = 0
KAM3 030641Z 15011KT 24/17 A3005 RMK A01 T02350171  RH  067%=      5-min Rain = 0
KAM3 030642Z 16009KT 24/17 A3005 RMK A01 T02350171  RH  067%=      5-min Rain = 0
KAM3 030643Z 15009KT 24/17 A3005 RMK A01 T02350171  RH  067%=      5-min Rain = 0
KAM3 030644Z 15010KT 24/17 A3005 RMK A01 T02350171  RH  067%=      5-min Rain = 0
KAM3 030645Z 15009KT 24/17 A3005 RMK A01 T02350171  RH  067%=      5-min Rain = 0
KAM3 030646Z 15009KT 24/17 A3005 RMK A01 T02360171  RH  067%=      5-min Rain = 0
KAM3 030647Z 15009KT 24/17 A3005 RMK A01 T02350171  RH  067%=      5-min Rain = 0
KAM3 030648Z 15009KT 24/17 A3005 RMK A01 T02350171  RH  067%=      5-min Rain = 0
KAM3 030649Z 15009KT 24/17 A3005 RMK A01 T02350171  RH  067%=      5-min Rain = 0
KAM3 030650Z 15008KT 24/17 A3005 RMK A01 T02350171  RH  067%=      5-min Rain = 0
KAM3 030651Z 15009KT 24/17 A3005 RMK A01 T02350172  RH  067%=      5-min Rain = 0
KAM3 030652Z 15008KT 24/17 A3005 RMK A01 T02350172  RH  067%=      5-min Rain = 0
KAM3 030653Z 15008KT 24/17 A3005 RMK A01 T02350172  RH  067%=      5-min Rain = 0
KAM3 030654Z 15007KT 24/17 A3005 RMK A01 T02350171  RH  067%=      5-min Rain = 0
KAM3 030655Z 14008KT 24/17 A3005 RMK A01 T02350171  RH  068%=      5-min Rain = 0
KAM3 030656Z 15008KT 24/17 A3005 RMK A01 T02350172  RH  068%=      5-min Rain = 0
KAM3 030657Z 15008KT 23/17 A3005 RMK A01 T02340172  RH  068%=      5-min Rain = 0
KAM3 030658Z 15008KT 24/17 A3005 RMK A01 T02350172  RH  068%=      5-min Rain = 0
KAM3 030659Z 15007KT 24/17 A3005 RMK A01 T02350172  RH  068%=      5-min Rain = 0
KAM3 030700Z 15008KT 23/17 A3005 RMK A01 T02340172  RH  068%=      5-min Rain = 0
KAM3 030701Z 15007KT 23/17 A3005 RMK A01 T02340172  RH  068%=      5-min Rain = 0
KAM3 030702Z 15006KT 23/17 A3005 RMK A01 T02340172  RH  068%=      5-min Rain = 0
KAM3 030703Z 16008KT 23/17 A3005 RMK A01 T02330172  RH  068%=      5-min Rain = 0
KAM3 030704Z 16006KT 23/17 A3005 RMK A01 T02330172  RH  069%=      5-min Rain = 0
KAM3 030705Z 15007KT 23/17 A3005 RMK A01 T02330172  RH  069%=      5-min Rain = 0
KAM3 030706Z 15006KT 23/17 A3005 RMK A01 T02330173  RH  069%=      5-min Rain = 0
KAM3 030707Z 15006KT 23/17 A3005 RMK A01 T02330173  RH  069%=      5-min Rain = 0
KAM3 030708Z 15005KT 23/17 A3005 RMK A01 T02320173  RH  069%=      5-min Rain = 0
KAM3 030709Z 16005KT 23/17 A3005 RMK A01 T02320173  RH  069%=      5-min Rain = 0
KAM3 030710Z 15005KT 23/17 A3005 RMK A01 T02320173  RH  069%=      5-min Rain = 0
KAM3 030711Z 15005KT 23/17 A3005 RMK A01 T02320173  RH  069%=      5-min Rain = 0
KAM3 030712Z 16005KT 23/17 A3005 RMK A01 T02320173  RH  070%=      5-min Rain = 0
KAM3 030713Z 16005KT 23/17 A3005 RMK A01 T02320173  RH  070%=      5-min Rain = 0
KAM3 030714Z 15005KT 23/17 A3005 RMK A01 T02310173  RH  070%=      5-min Rain = 0
KAM3 030715Z 15005KT 23/17 A3005 RMK A01 T02310173  RH  070%=      5-min Rain = 0
KAM3 030716Z 15005KT 23/17 A3005 RMK A01 T02310174  RH  070%=      5-min Rain = 0
KAM3 030717Z 14006KT 23/17 A3005 RMK A01 T02310174  RH  070%=      5-min Rain = 0
KAM3 030718Z 15006KT 23/17 A3005 RMK A01 T02310174  RH  070%=      5-min Rain = 0
KAM3 030719Z 16007KT 23/17 A3005 RMK A01 T02320174  RH  070%=      5-min Rain = 0
KAM3 030720Z 15008KT 23/18 A3005 RMK A01 T02320175  RH  070%=      5-min Rain = 0
KAM3 030721Z 15008KT 23/18 A3005 RMK A01 T02330176  RH  070%=      5-min Rain = 0
KAM3 030722Z 15007KT 23/18 A3005 RMK A01 T02340176  RH  070%=      5-min Rain = 0
KAM3 030723Z 16007KT 23/18 A3005 RMK A01 T02340176  RH  070%=      5-min Rain = 0
KAM3 030724Z 16006KT 23/18 A3005 RMK A01 T02340176  RH  070%=      5-min Rain = 0
KAM3 030725Z 15006KT 23/18 A3005 RMK A01 T02340176  RH  070%=      5-min Rain = 0
KAM3 030726Z 16005KT 23/18 A3005 RMK A01 T02340176  RH  070%=      5-min Rain = 0
KAM3 030727Z 15006KT 23/18 A3005 RMK A01 T02330176  RH  070%=      5-min Rain = 0
KAM3 030728Z 15006KT 23/18 A3005 RMK A01 T02330176  RH  070%=      5-min Rain = 0
KAM3 030729Z 15006KT 23/18 A3005 RMK A01 T02330176  RH  070%=      5-min Rain = 0
KAM3 030730Z 16007KT 23/18 A3005 RMK A01 T02320176  RH  070%=      5-min Rain = 0
KAM3 030731Z 15006KT 23/18 A3005 RMK A01 T02320176  RH  071%=      5-min Rain = 0
KAM3 030732Z 16007KT 23/18 A3005 RMK A01 T02320176  RH  071%=      5-min Rain = 0
KAM3 030733Z 16006KT 23/18 A3005 RMK A01 T02320176  RH  071%=      5-min Rain = 0
KAM3 030734Z 16007KT 23/18 A3004 RMK A01 T02320176  RH  071%=      5-min Rain = 0
KAM3 030735Z 17007KT 23/18 A3004 RMK A01 T02320176  RH  071%=      5-min Rain = 0
KAM3 030736Z 17007KT 23/18 A3004 RMK A01 T02320176  RH  071%=      5-min Rain = 0
KAM3 030737Z 17006KT 23/18 A3004 RMK A01 T02320177  RH  071%=      5-min Rain = 0
KAM3 030738Z 17007KT 23/18 A3004 RMK A01 T02320176  RH  071%=      5-min Rain = 0
KAM3 030739Z 17007KT 23/18 A3004 RMK A01 T02320176  RH  071%=      5-min Rain = 0
KAM3 030740Z 17008KT 23/18 A3004 RMK A01 T02320176  RH  071%=      5-min Rain = 0
KAM3 030741Z 17008KT 23/18 A3004 RMK A01 T02320177  RH  071%=      5-min Rain = 0
KAM3 030742Z 17008KT 23/18 A3004 RMK A01 T02320177  RH  071%=      5-min Rain = 0
KAM3 030743Z 18008KT 23/18 A3004 RMK A01 T02330177  RH  071%=      5-min Rain = 0
KAM3 030744Z 18007KT 23/18 A3004 RMK A01 T02330177  RH  071%=      5-min Rain = 0
KAM3 030745Z 18007KT 23/18 A3004 RMK A01 T02330177  RH  071%=      5-min Rain = 0
KAM3 030746Z 18008KT 23/18 A3004 RMK A01 T02330177  RH  071%=      5-min Rain = 0
KAM3 030747Z 18007KT 23/18 A3004 RMK A01 T02330177  RH  071%=      5-min Rain = 0
KAM3 030748Z 19006KT 23/18 A3004 RMK A01 T02330177  RH  070%=      5-min Rain = 0
KAM3 030749Z 18007KT 23/18 A3004 RMK A01 T02340177  RH  070%=      5-min Rain = 0
KAM3 030750Z 18008KT 23/18 A3004 RMK A01 T02330177  RH  070%=      5-min Rain = 0
KAM3 030751Z 18007KT 23/18 A3004 RMK A01 T02330177  RH  071%=      5-min Rain = 0
KAM3 030752Z 18007KT 23/18 A3004 RMK A01 T02320177  RH  071%=      5-min Rain = 0
KAM3 030753Z 18008KT 23/18 A3004 RMK A01 T02320177  RH  071%=      5-min Rain = 0
KAM3 030754Z 18007KT 23/18 A3004 RMK A01 T02320177  RH  071%=      5-min Rain = 0
KAM3 030755Z 18007KT 23/18 A3004 RMK A01 T02310176  RH  071%=      5-min Rain = 0
KAM3 030756Z 18007KT 23/18 A3004 RMK A01 T02310177  RH  071%=      5-min Rain = 0
KAM3 030757Z 18008KT 23/18 A3004 RMK A01 T02300176  RH  072%=      5-min Rain = 0
KAM3 030758Z 18008KT 23/18 A3004 RMK A01 T02300176  RH  072%=      5-min Rain = 0
KAM3 030759Z 18008KT 23/18 A3004 RMK A01 T02300176  RH  071%=      5-min Rain = 0
KAM3 030800Z 18008KT 23/18 A3004 RMK A01 T02300176  RH  071%=      5-min Rain = 0
KAM3 030801Z 18008KT 23/18 A3004 RMK A01 T02300176  RH  071%=      5-min Rain = 0
KAM3 030802Z 18008KT 23/18 A3004 RMK A01 T02310176  RH  071%=      5-min Rain = 0
KAM3 030803Z 18008KT 23/18 A3004 RMK A01 T02310176  RH  071%=      5-min Rain = 0
KAM3 030804Z 18008KT 23/18 A3004 RMK A01 T02310177  RH  071%=      5-min Rain = 0
KAM3 030805Z 18007KT 23/18 A3004 RMK A01 T02310176  RH  071%=      5-min Rain = 0
KAM3 030806Z 18007KT 23/18 A3004 RMK A01 T02310176  RH  071%=      5-min Rain = 0
KAM3 030807Z 18007KT 23/18 A3004 RMK A01 T02310177  RH  071%=      5-min Rain = 0
KAM3 030808Z 18008KT 23/18 A3004 RMK A01 T02310177  RH  071%=      5-min Rain = 0
KAM3 030809Z 17007KT 23/18 A3004 RMK A01 T02310177  RH  071%=      5-min Rain = 0
KAM3 030810Z 17007KT 23/18 A3004 RMK A01 T02310177  RH  071%=      5-min Rain = 0
KAM3 030811Z 17008KT 23/18 A3004 RMK A01 T02310176  RH  071%=      5-min Rain = 0
KAM3 030812Z 17007KT 23/18 A3004 RMK A01 T02310176  RH  071%=      5-min Rain = 0
KAM3 030813Z 17007KT 23/18 A3004 RMK A01 T02300176  RH  072%=      5-min Rain = 0
KAM3 030814Z 17007KT 23/18 A3004 RMK A01 T02300176  RH  072%=      5-min Rain = 0
KAM3 030815Z 17007KT 23/18 A3004 RMK A01 T02300176  RH  072%=      5-min Rain = 0
KAM3 030816Z 17007KT 23/18 A3004 RMK A01 T02290176  RH  072%=      5-min Rain = 0
KAM3 030817Z 17007KT 23/18 A3004 RMK A01 T02290176  RH  072%=      5-min Rain = 0
KAM3 030818Z 17007KT 23/18 A3004 RMK A01 T02290176  RH  072%=      5-min Rain = 0
KAM3 030819Z 17006KT 23/18 A3004 RMK A01 T02290176  RH  072%=      5-min Rain = 0
KAM3 030820Z 17006KT 23/18 A3004 RMK A01 T02290176  RH  072%=      5-min Rain = 0
KAM3 030821Z 17006KT 23/18 A3004 RMK A01 T02290176  RH  072%=      5-min Rain = 0
KAM3 030822Z 17006KT 23/18 A3004 RMK A01 T02280176  RH  072%=      5-min Rain = 0
KAM3 030823Z 16006KT 23/18 A3004 RMK A01 T02280176  RH  072%=      5-min Rain = 0
KAM3 030824Z 16005KT 23/18 A3004 RMK A01 T02280176  RH  073%=      5-min Rain = 0
KAM3 030825Z 16005KT 23/18 A3004 RMK A01 T02280176  RH  073%=      5-min Rain = 0
KAM3 030826Z 15005KT 23/18 A3004 RMK A01 T02280176  RH  073%=      5-min Rain = 0
KAM3 030827Z 15004KT 23/18 A3004 RMK A01 T02280176  RH  073%=      5-min Rain = 0
KAM3 030828Z 15004KT 23/18 A3004 RMK A01 T02270176  RH  073%=      5-min Rain = 0
KAM3 030829Z 15004KT 23/18 A3004 RMK A01 T02270176  RH  073%=      5-min Rain = 0
KAM3 030830Z 14004KT 23/18 A3004 RMK A01 T02270176  RH  073%=      5-min Rain = 0
KAM3 030831Z 14003KT 23/18 A3004 RMK A01 T02260176  RH  073%=      5-min Rain = 0
KAM3 030832Z 14003KT 23/18 A3004 RMK A01 T02250175  RH  073%=      5-min Rain = 0
KAM3 030833Z 14002KT 23/18 A3004 RMK A01 T02250176  RH  074%=      5-min Rain = 0
KAM3 030834Z 13002KT 22/18 A3004 RMK A01 T02240176  RH  074%=      5-min Rain = 0
KAM3 030835Z 13002KT 22/18 A3005 RMK A01 T02240175  RH  074%=      5-min Rain = 0
KAM3 030836Z 12001KT 22/18 A3004 RMK A01 T02230175  RH  074%=      5-min Rain = 0
KAM3 030837Z 12000KT 22/18 A3005 RMK A01 T02230175  RH  074%=      5-min Rain = 0
KAM3 030838Z 01000KT 22/17 A3004 RMK A01 T02210171  RH  074%=      5-min Rain = 0
KAM3 030839Z 35003KT 22/17 A3004 RMK A01 T02180171  RH  075%=      5-min Rain = 0
KAM3 030840Z 35003KT 22/17 A3004 RMK A01 T02150172  RH  076%=      5-min Rain = 0
KAM3 030841Z 35004KT 21/17 A3004 RMK A01 T02140172  RH  077%=      5-min Rain = 0
KAM3 030842Z 35004KT 21/17 A3004 RMK A01 T02140172  RH  077%=      5-min Rain = 0
KAM3 030843Z 35004KT 21/17 A3004 RMK A01 T02140172  RH  077%=      5-min Rain = 0
KAM3 030844Z 35004KT 21/17 A3005 RMK A01 T02140172  RH  077%=      5-min Rain = 0
KAM3 030845Z 36004KT 21/17 A3005 RMK A01 T02140172  RH  077%=      5-min Rain = 0
KAM3 030846Z 00004KT 21/17 A3005 RMK A01 T02130172  RH  077%=      5-min Rain = 0
KAM3 030847Z 01004KT 21/17 A3005 RMK A01 T02130171  RH  077%=      5-min Rain = 0
KAM3 030848Z 01004KT 21/17 A3005 RMK A01 T02120171  RH  077%=      5-min Rain = 0
KAM3 030849Z 02004KT 21/17 A3005 RMK A01 T02110171  RH  078%=      5-min Rain = 0
KAM3 030850Z 02004KT 21/17 A3005 RMK A01 T02110171  RH  078%=      5-min Rain = 0
KAM3 030851Z 02004KT 21/17 A3005 RMK A01 T02100171  RH  078%=      5-min Rain = 0
KAM3 030852Z 02004KT 21/17 A3005 RMK A01 T02100171  RH  078%=      5-min Rain = 0
KAM3 030853Z 01004KT 21/17 A3005 RMK A01 T02110172  RH  078%=      5-min Rain = 0
KAM3 030854Z 01004KT 21/17 A3005 RMK A01 T02110172  RH  078%=      5-min Rain = 0
KAM3 030855Z 02003KT 21/17 A3005 RMK A01 T02120172  RH  078%=      5-min Rain = 0
KAM3 030856Z 02003KT 21/17 A3005 RMK A01 T02130172  RH  078%=      5-min Rain = 0
KAM3 030857Z 02003KT 21/17 A3005 RMK A01 T02130172  RH  077%=      5-min Rain = 0
KAM3 030858Z 03003KT 21/17 A3005 RMK A01 T02130172  RH  077%=      5-min Rain = 0
KAM3 030859Z 03002KT 21/17 A3005 RMK A01 T02140172  RH  077%=      5-min Rain = 0
KAM3 030900Z 04002KT 21/17 A3005 RMK A01 T02140172  RH  077%=      5-min Rain = 0
KAM3 030901Z 05001KT 21/17 A3005 RMK A01 T02140173  RH  078%=      5-min Rain = 0
KAM3 030902Z 05001KT 22/17 A3005 RMK A01 T02150174  RH  078%=      5-min Rain = 0
KAM3 030903Z 05001KT 22/18 A3005 RMK A01 T02160175  RH  077%=      5-min Rain = 0
KAM3 030904Z 06001KT 22/18 A3005 RMK A01 T02180175  RH  076%=      5-min Rain = 0
KAM3 030905Z 10001KT 22/18 A3005 RMK A01 T02190175  RH  076%=      5-min Rain = 0
KAM3 030906Z 11001KT 22/18 A3005 RMK A01 T02200175  RH  076%=      5-min Rain = 0
KAM3 030907Z 11001KT 22/18 A3005 RMK A01 T02210175  RH  075%=      5-min Rain = 0
KAM3 030908Z 10001KT 22/18 A3005 RMK A01 T02210175  RH  075%=      5-min Rain = 0
KAM3 030909Z 12002KT 22/18 A3005 RMK A01 T02200175  RH  076%=      5-min Rain = 0
KAM3 030910Z 13002KT 22/18 A3005 RMK A01 T02200176  RH  076%=      5-min Rain = 0
KAM3 030911Z 12002KT 22/18 A3005 RMK A01 T02210175  RH  075%=      5-min Rain = 0
KAM3 030912Z 16004KT 22/18 A3005 RMK A01 T02220176  RH  075%=      5-min Rain = 0
KAM3 030913Z 16004KT 23/18 A3005 RMK A01 T02250179  RH  075%=      5-min Rain = 0
KAM3 030914Z 16006KT 23/18 A3005 RMK A01 T02290180  RH  074%=      5-min Rain = 0
KAM3 030915Z 16004KT 23/18 A3005 RMK A01 T02330180  RH  072%=      5-min Rain = 0
KAM3 030916Z 16005KT 24/18 A3005 RMK A01 T02360179  RH  070%=      5-min Rain = 0
KAM3 030917Z 16006KT 24/18 A3005 RMK A01 T02360179  RH  070%=      5-min Rain = 0
KAM3 030918Z 15005KT 24/18 A3005 RMK A01 T02360178  RH  070%=      5-min Rain = 0
KAM3 030919Z 14004KT 24/18 A3005 RMK A01 T02360178  RH  070%=      5-min Rain = 0
KAM3 030920Z 13003KT 24/18 A3005 RMK A01 T02350178  RH  070%=      5-min Rain = 0
KAM3 030921Z 11003KT 23/18 A3005 RMK A01 T02330175  RH  070%=      5-min Rain = 0
KAM3 030922Z 09003KT 23/17 A3005 RMK A01 T02300174  RH  071%=      5-min Rain = 0
KAM3 030923Z 07004KT 23/17 A3005 RMK A01 T02270174  RH  072%=      5-min Rain = 0
KAM3 030924Z 05005KT 23/17 A3005 RMK A01 T02250174  RH  073%=      5-min Rain = 0
KAM3 030925Z 04006KT 22/17 A3005 RMK A01 T02230173  RH  073%=      5-min Rain = 0
KAM3 030926Z 04006KT 22/17 A3005 RMK A01 T02200172  RH  074%=      5-min Rain = 0
KAM3 030927Z 05006KT 22/17 A3005 RMK A01 T02180172  RH  075%=      5-min Rain = 0
KAM3 030928Z 05006KT 22/17 A3005 RMK A01 T02160172  RH  076%=      5-min Rain = 0
KAM3 030929Z 05006KT 21/17 A3005 RMK A01 T02140172  RH  077%=      5-min Rain = 0
KAM3 030930Z 05006KT 21/17 A3005 RMK A01 T02140172  RH  077%=      5-min Rain = 0
KAM3 030931Z 05006KT 21/17 A3005 RMK A01 T02130172  RH  077%=      5-min Rain = 0
KAM3 030932Z 05006KT 21/17 A3005 RMK A01 T02130172  RH  077%=      5-min Rain = 0
KAM3 030933Z 06006KT 21/17 A3005 RMK A01 T02130171  RH  077%=      5-min Rain = 0
KAM3 030934Z 06006KT 21/17 A3005 RMK A01 T02120171  RH  077%=      5-min Rain = 0
KAM3 030935Z 06006KT 21/17 A3005 RMK A01 T02110171  RH  078%=      5-min Rain = 0
KAM3 030936Z 07005KT 21/17 A3005 RMK A01 T02100171  RH  078%=      5-min Rain = 0
KAM3 030937Z 07005KT 21/17 A3005 RMK A01 T02100171  RH  078%=      5-min Rain = 0
KAM3 030938Z 08005KT 21/17 A3005 RMK A01 T02100170  RH  078%=      5-min Rain = 0
KAM3 030939Z 10004KT 21/17 A3005 RMK A01 T02090170  RH  078%=      5-min Rain = 0
KAM3 030940Z 11005KT 21/17 A3005 RMK A01 T02090172  RH  079%=      5-min Rain = 0
KAM3 030941Z 11004KT 21/17 A3005 RMK A01 T02100173  RH  079%=      5-min Rain = 0
KAM3 030942Z 11005KT 21/17 A3005 RMK A01 T02130173  RH  078%=      5-min Rain = 0
KAM3 030943Z 11006KT 21/17 A3005 RMK A01 T02140172  RH  077%=      5-min Rain = 0
KAM3 030944Z 11006KT 22/17 A3005 RMK A01 T02150174  RH  078%=      5-min Rain = 0
KAM3 030945Z 12006KT 22/17 A3005 RMK A01 T02150174  RH  077%=      5-min Rain = 0
KAM3 030946Z 12006KT 22/17 A3005 RMK A01 T02150174  RH  077%=      5-min Rain = 0
KAM3 030947Z 12006KT 22/17 A3005 RMK A01 T02150174  RH  077%=      5-min Rain = 0
KAM3 030948Z 13006KT 22/17 A3005 RMK A01 T02150174  RH  077%=      5-min Rain = 0
KAM3 030949Z 13005KT 22/17 A3005 RMK A01 T02150174  RH  077%=      5-min Rain = 0
KAM3 030950Z 14006KT 22/17 A3005 RMK A01 T02150174  RH  078%=      5-min Rain = 0
KAM3 030951Z 14006KT 22/18 A3005 RMK A01 T02150175  RH  078%=      5-min Rain = 0
KAM3 030952Z 14005KT 22/18 A3005 RMK A01 T02160175  RH  078%=      5-min Rain = 0
KAM3 030953Z 14006KT 22/18 A3005 RMK A01 T02160175  RH  077%=      5-min Rain = 0
KAM3 030954Z 14006KT 22/18 A3005 RMK A01 T02160175  RH  077%=      5-min Rain = 0
KAM3 030955Z 15005KT 22/18 A3005 RMK A01 T02170175  RH  077%=      5-min Rain = 0
KAM3 030956Z 15006KT 22/18 A3005 RMK A01 T02170176  RH  077%=      5-min Rain = 0
KAM3 030957Z 15006KT 22/18 A3005 RMK A01 T02180176  RH  077%=      5-min Rain = 0
KAM3 030958Z 16005KT 22/18 A3005 RMK A01 T02190176  RH  076%=      5-min Rain = 0
KAM3 030959Z 16005KT 22/18 A3005 RMK A01 T02190176  RH  076%=      5-min Rain = 0
KAM3 031000Z 16005KT 22/18 A3005 RMK A01 T02200176  RH  076%=      5-min Rain = 0
KAM3 031001Z 16005KT 22/18 A3005 RMK A01 T02200176  RH  076%=      5-min Rain = 0
KAM3 031002Z 16005KT 22/18 A3005 RMK A01 T02200176  RH  076%=      5-min Rain = 0
KAM3 031003Z 16004KT 22/18 A3005 RMK A01 T02210176  RH  076%=      5-min Rain = 0
KAM3 031004Z 15004KT 22/18 A3006 RMK A01 T02210176  RH  076%=      5-min Rain = 0
KAM3 031005Z 14002KT 22/18 A3006 RMK A01 T02200175  RH  075%=      5-min Rain = 0
KAM3 031006Z 14001KT 22/17 A3006 RMK A01 T02180173  RH  075%=      5-min Rain = 0
KAM3 031007Z 04001KT 22/17 A3006 RMK A01 T02150172  RH  076%=      5-min Rain = 0
KAM3 031008Z 32002KT 21/17 A3006 RMK A01 T02120170  RH  077%=      5-min Rain = 0
KAM3 031009Z 31002KT 21/17 A3006 RMK A01 T02090171  RH  079%=      5-min Rain = 0
KAM3 031010Z 30002KT 21/17 A3006 RMK A01 T02070170  RH  079%=      5-min Rain = 0
KAM3 031011Z 29001KT 21/17 A3006 RMK A01 T02050169  RH  080%=      5-min Rain = 0
KAM3 031012Z 28001KT 21/17 A3006 RMK A01 T02050172  RH  081%=      5-min Rain = 0
KAM3 031013Z 26002KT 21/17 A3006 RMK A01 T02060172  RH  081%=      5-min Rain = 0
KAM3 031014Z 33001KT 21/17 A3006 RMK A01 T02070168  RH  079%=      5-min Rain = 0
KAM3 031015Z 30001KT 21/17 A3006 RMK A01 T02060167  RH  079%=      5-min Rain = 0
KAM3 031016Z 36001KT 21/17 A3006 RMK A01 T02050169  RH  080%=      5-min Rain = 0
KAM3 031017Z 00002KT 20/17 A3006 RMK A01 T02040170  RH  081%=      5-min Rain = 0
KAM3 031018Z 35002KT 20/17 A3006 RMK A01 T02040170  RH  081%=      5-min Rain = 0
KAM3 031019Z 36002KT 20/17 A3006 RMK A01 T02040170  RH  081%=      5-min Rain = 0
KAM3 031020Z 02002KT 20/17 A3006 RMK A01 T02040170  RH  081%=      5-min Rain = 0
KAM3 031021Z 05001KT 21/17 A3006 RMK A01 T02050172  RH  081%=      5-min Rain = 0
KAM3 031022Z 05002KT 21/17 A3006 RMK A01 T02100173  RH  079%=      5-min Rain = 0
KAM3 031023Z 04003KT 21/17 A3006 RMK A01 T02120171  RH  077%=      5-min Rain = 0
KAM3 031024Z 04002KT 21/17 A3006 RMK A01 T02130173  RH  078%=      5-min Rain = 0
KAM3 031025Z 06003KT 21/17 A3007 RMK A01 T02130172  RH  078%=      5-min Rain = 0
KAM3 031026Z 04003KT 21/17 A3007 RMK A01 T02130171  RH  077%=      5-min Rain = 0
KAM3 031027Z 03003KT 21/17 A3007 RMK A01 T02120171  RH  077%=      5-min Rain = 0
KAM3 031028Z 03004KT 21/17 A3007 RMK A01 T02110171  RH  078%=      5-min Rain = 0
KAM3 031029Z 04004KT 21/17 A3007 RMK A01 T02090171  RH  079%=      5-min Rain = 0
KAM3 031030Z 04005KT 21/17 A3007 RMK A01 T02080171  RH  079%=      5-min Rain = 0
KAM3 031031Z 05005KT 21/17 A3007 RMK A01 T02080171  RH  079%=      5-min Rain = 0
KAM3 031032Z 04005KT 21/17 A3007 RMK A01 T02070171  RH  080%=      5-min Rain = 0
KAM3 031033Z 04005KT 21/17 A3007 RMK A01 T02070170  RH  080%=      5-min Rain = 0
KAM3 031034Z 05005KT 21/17 A3007 RMK A01 T02060170  RH  080%=      5-min Rain = 0
KAM3 031035Z 05004KT 21/17 A3007 RMK A01 T02050170  RH  080%=      5-min Rain = 0
KAM3 031036Z 05004KT 21/17 A3007 RMK A01 T02050170  RH  080%=      5-min Rain = 0
KAM3 031037Z 05003KT 21/17 A3006 RMK A01 T02050171  RH  081%=      5-min Rain = 0
KAM3 031038Z 05003KT 21/17 A3006 RMK A01 T02050171  RH  081%=      5-min Rain = 0
KAM3 031039Z 04003KT 21/17 A3006 RMK A01 T02050170  RH  081%=      5-min Rain = 0
KAM3 031040Z 02003KT 21/17 A3006 RMK A01 T02050170  RH  080%=      5-min Rain = 0
KAM3 031041Z 01003KT 21/17 A3006 RMK A01 T02050170  RH  080%=      5-min Rain = 0
KAM3 031042Z 01003KT 21/17 A3006 RMK A01 T02050170  RH  081%=      5-min Rain = 0
KAM3 031043Z 01002KT 21/17 A3006 RMK A01 T02050171  RH  081%=      5-min Rain = 0
KAM3 031044Z 01002KT 21/17 A3006 RMK A01 T02050171  RH  081%=      5-min Rain = 0
KAM3 031045Z 01001KT 21/17 A3006 RMK A01 T02050171  RH  081%=      5-min Rain = 0
KAM3 031046Z 01001KT 21/17 A3006 RMK A01 T02050171  RH  081%=      5-min Rain = 0
KAM3 031047Z 00000KT 21/17 A3006 RMK A01 T02050171  RH  081%=      5-min Rain = 0
KAM3 031048Z 00000KT 21/17 A3006 RMK A01 T02060171  RH  081%=      5-min Rain = 0
KAM3 031049Z 22002KT 21/17 A3006 RMK A01 T02060171  RH  080%=      5-min Rain = 0
KAM3 031050Z 24001KT 21/17 A3005 RMK A01 T02060171  RH  080%=      5-min Rain = 0
KAM3 031051Z 25002KT 21/17 A3005 RMK A01 T02060171  RH  080%=      5-min Rain = 0
KAM3 031052Z 25002KT 21/17 A3005 RMK A01 T02060170  RH  080%=      5-min Rain = 0
KAM3 031053Z 26003KT 21/17 A3005 RMK A01 T02050172  RH  081%=      5-min Rain = 0
KAM3 031054Z 27002KT 21/17 A3005 RMK A01 T02050173  RH  082%=      5-min Rain = 0
KAM3 031055Z 29002KT 21/17 A3006 RMK A01 T02070172  RH  081%=      5-min Rain = 0
KAM3 031056Z 31002KT 21/17 A3006 RMK A01 T02080173  RH  080%=      5-min Rain = 0
KAM3 031057Z 34001KT 21/17 A3006 RMK A01 T02090173  RH  080%=      5-min Rain = 0
KAM3 031058Z 01002KT 21/17 A3006 RMK A01 T02090172  RH  079%=      5-min Rain = 0
KAM3 031059Z 03002KT 21/17 A3006 RMK A01 T02090171  RH  079%=      5-min Rain = 0
KAM3 031100Z 03002KT 21/17 A3006 RMK A01 T02070170  RH  079%=      5-min Rain = 0
KAM3 031101Z 04002KT 21/17 A3006 RMK A01 T02050170  RH  080%=      5-min Rain = 0
KAM3 031102Z 03002KT 21/17 A3006 RMK A01 T02050170  RH  080%=      5-min Rain = 0
KAM3 031103Z 03001KT 20/17 A3006 RMK A01 T02040170  RH  081%=      5-min Rain = 0
KAM3 031104Z 02002KT 20/17 A3006 RMK A01 T02040170  RH  081%=      5-min Rain = 0
KAM3 031105Z 35002KT 20/17 A3006 RMK A01 T02040170  RH  081%=      5-min Rain = 0
KAM3 031106Z 35002KT 21/17 A3006 RMK A01 T02050171  RH  081%=      5-min Rain = 0
KAM3 031107Z 34002KT 21/17 A3006 RMK A01 T02060172  RH  081%=      5-min Rain = 0
KAM3 031108Z 33002KT 21/17 A3006 RMK A01 T02080172  RH  080%=      5-min Rain = 0
KAM3 031109Z 32002KT 21/17 A3006 RMK A01 T02090173  RH  079%=      5-min Rain = 0
KAM3 031110Z 32002KT 21/17 A3006 RMK A01 T02100173  RH  079%=      5-min Rain = 0
KAM3 031111Z 32002KT 21/17 A3006 RMK A01 T02110174  RH  079%=      5-min Rain = 0
KAM3 031112Z 33001KT 21/17 A3006 RMK A01 T02120174  RH  078%=      5-min Rain = 0
KAM3 031113Z 34001KT 21/17 A3006 RMK A01 T02140174  RH  078%=      5-min Rain = 0
KAM3 031114Z 34001KT 21/17 A3006 RMK A01 T02140174  RH  078%=      5-min Rain = 0
KAM3 031115Z 34001KT 22/17 A3006 RMK A01 T02150174  RH  077%=      5-min Rain = 0
KAM3 031116Z 34001KT 22/17 A3006 RMK A01 T02150174  RH  077%=      5-min Rain = 0
KAM3 031117Z 34001KT 22/17 A3006 RMK A01 T02150174  RH  077%=      5-min Rain = 0
KAM3 031118Z 34001KT 22/17 A3007 RMK A01 T02160174  RH  077%=      5-min Rain = 0
KAM3 031119Z 34001KT 22/17 A3007 RMK A01 T02160174  RH  077%=      5-min Rain = 0
KAM3 031120Z 35001KT 22/17 A3007 RMK A01 T02160174  RH  077%=      5-min Rain = 0
KAM3 031121Z 01002KT 22/17 A3007 RMK A01 T02160174  RH  077%=      5-min Rain = 0
KAM3 031122Z 02002KT 22/17 A3007 RMK A01 T02150173  RH  077%=      5-min Rain = 0
KAM3 031123Z 04004KT 21/17 A3007 RMK A01 T02130170  RH  076%=      5-min Rain = 0
KAM3 031124Z 04006KT 21/17 A3008 RMK A01 T02100169  RH  077%=      5-min Rain = 0
KAM3 031125Z 05010KT 21/17 A3008 RMK A01 T02080171  RH  079%=      5-min Rain = 0
KAM3 031126Z 05014KT 21/17 A3008 RMK A01 T02080171  RH  079%=      5-min Rain = 0
KAM3 031127Z 06015KT 21/17 A3009 RMK A01 T02080171  RH  080%=      5-min Rain = 0
KAM3 031128Z 06014KT 21/17 A3009 RMK A01 T02070171  RH  080%=      5-min Rain = 0
KAM3 031129Z 06013KT 21/17 A3009 RMK A01 T02060171  RH  081%=      5-min Rain = 0
KAM3 031130Z 07011KT 20/17 A3009 RMK A01 T02040171  RH  081%=      5-min Rain = 0
KAM3 031131Z 06011KT 20/17 A3009 RMK A01 T02030170  RH  081%=      5-min Rain = 0
KAM3 031132Z 07011KT 20/17 A3009 RMK A01 T02030170  RH  082%=      5-min Rain = 0
KAM3 031133Z 08010KT 20/17 A3009 RMK A01 T02020170  RH  082%=      5-min Rain = 0
KAM3 031134Z 07010KT 20/17 A3009 RMK A01 T02020170  RH  082%=      5-min Rain = 0
KAM3 031135Z 08010KT 20/17 A3008 RMK A01 T02020170  RH  082%=      5-min Rain = 0
KAM3 031136Z 08009KT 20/17 A3008 RMK A01 T02010171  RH  083%=      5-min Rain = 0
KAM3 031137Z 08008KT 20/17 A3008 RMK A01 T02020171  RH  082%=      5-min Rain = 0
KAM3 031138Z 08008KT 20/17 A3008 RMK A01 T02010170  RH  082%=      5-min Rain = 0
KAM3 031139Z 09008KT 20/17 A3008 RMK A01 T02020171  RH  082%=      5-min Rain = 0
KAM3 031140Z 09008KT 20/17 A3008 RMK A01 T02010170  RH  082%=      5-min Rain = 0
KAM3 031141Z 10007KT 20/17 A3009 RMK A01 T02010170  RH  082%=      5-min Rain = 0
KAM3 031142Z 10008KT 20/17 A3009 RMK A01 T02010170  RH  082%=      5-min Rain = 0
KAM3 031143Z 10008KT 20/17 A3009 RMK A01 T02010172  RH  083%=      5-min Rain = 0
KAM3 031144Z 10006KT 20/17 A3009 RMK A01 T02030172  RH  083%=      5-min Rain = 0
KAM3 031145Z 10006KT 20/17 A3009 RMK A01 T02040172  RH  082%=      5-min Rain = 0
KAM3 031146Z 10007KT 21/17 A3008 RMK A01 T02060174  RH  082%=      5-min Rain = 0
KAM3 031147Z 10006KT 21/17 A3008 RMK A01 T02070174  RH  081%=      5-min Rain = 0
KAM3 031148Z 11005KT 21/18 A3008 RMK A01 T02090175  RH  081%=      5-min Rain = 0
KAM3 031149Z 11005KT 21/17 A3008 RMK A01 T02090174  RH  080%=      5-min Rain = 0
KAM3 031150Z 11005KT 21/17 A3008 RMK A01 T02090174  RH  080%=      5-min Rain = 0
KAM3 031151Z 11005KT 21/17 A3008 RMK A01 T02080174  RH  081%=      5-min Rain = 0
KAM3 031152Z 10006KT 21/17 A3008 RMK A01 T02080174  RH  081%=      5-min Rain = 0
KAM3 031153Z 10007KT 21/17 A3009 RMK A01 T02070173  RH  081%=      5-min Rain = 0
KAM3 031154Z 09008KT 21/17 A3009 RMK A01 T02060172  RH  081%=      5-min Rain = 0
KAM3 031155Z 09008KT 21/17 A3009 RMK A01 T02050173  RH  082%=      5-min Rain = 0
KAM3 031156Z 09010KT 21/17 A3009 RMK A01 T02050173  RH  082%=      5-min Rain = 0
KAM3 031157Z 09010KT 21/17 A3009 RMK A01 T02060174  RH  082%=      5-min Rain = 0
KAM3 031158Z 09010KT 21/17 A3009 RMK A01 T02090174  RH  081%=      5-min Rain = 0
KAM3 031159Z 09010KT 21/18 A3009 RMK A01 T02120175  RH  080%=      5-min Rain = 0
KAM3 031200Z 09009KT 21/18 A3009 RMK A01 T02140175  RH  078%=      5-min Rain = 0
KAM3 031201Z 10008KT 22/18 A3009 RMK A01 T02150175  RH  078%=      5-min Rain = 0
KAM3 031202Z 11007KT 22/18 A3009 RMK A01 T02160175  RH  078%=      5-min Rain = 0
KAM3 031203Z 12008KT 22/18 A3009 RMK A01 T02160175  RH  078%=      5-min Rain = 0
KAM3 031204Z 13008KT 22/18 A3009 RMK A01 T02160175  RH  078%=      5-min Rain = 0
KAM3 031205Z 13008KT 22/18 A3009 RMK A01 T02150176  RH  078%=      5-min Rain = 0
KAM3 031206Z 14007KT 22/18 A3009 RMK A01 T02150175  RH  078%=      5-min Rain = 0
KAM3 031207Z 14007KT 22/18 A3009 RMK A01 T02150175  RH  078%=      5-min Rain = 0
KAM3 031208Z 13007KT 22/18 A3009 RMK A01 T02150175  RH  078%=      5-min Rain = 0
KAM3 031209Z 13007KT 22/18 A3009 RMK A01 T02150175  RH  078%=      5-min Rain = 0
KAM3 031210Z 12006KT 22/18 A3009 RMK A01 T02150175  RH  078%=      5-min Rain = 0
KAM3 031211Z 12007KT 22/18 A3009 RMK A01 T02150175  RH  078%=      5-min Rain = 0
KAM3 031212Z 11007KT 22/18 A3009 RMK A01 T02150176  RH  078%=      5-min Rain = 0
KAM3 031213Z 11007KT 22/18 A3009 RMK A01 T02150176  RH  078%=      5-min Rain = 0
KAM3 031214Z 11007KT 22/18 A3009 RMK A01 T02150175  RH  078%=      5-min Rain = 0
KAM3 031215Z 11007KT 22/18 A3009 RMK A01 T02150176  RH  078%=      5-min Rain = 0
KAM3 031216Z 11007KT 22/18 A301 RMK A01 T02150176  RH  078%=      5-min Rain = 0
KAM3 031217Z 12006KT 22/18 A301 RMK A01 T02160176  RH  078%=      5-min Rain = 0
KAM3 031218Z 12008KT 22/18 A301 RMK A01 T02170177  RH  078%=      5-min Rain = 0
KAM3 031219Z 13008KT 22/18 A301 RMK A01 T02170177  RH  078%=      5-min Rain = 0
KAM3 031220Z 13006KT 22/18 A301 RMK A01 T02180177  RH  077%=      5-min Rain = 0
KAM3 031221Z 13007KT 22/18 A301 RMK A01 T02190177  RH  077%=      5-min Rain = 0
KAM3 031222Z 14007KT 22/18 A301 RMK A01 T02190177  RH  077%=      5-min Rain = 0
KAM3 031223Z 14006KT 22/18 A301 RMK A01 T02190177  RH  077%=      5-min Rain = 0
KAM3 031224Z 14006KT 22/18 A301 RMK A01 T02200177  RH  077%=      5-min Rain = 0
KAM3 031225Z 13007KT 22/18 A301 RMK A01 T02200177  RH  077%=      5-min Rain = 0
KAM3 031226Z 13007KT 22/18 A301 RMK A01 T02200177  RH  077%=      5-min Rain = 0
KAM3 031227Z 12007KT 22/18 A301 RMK A01 T02200177  RH  077%=      5-min Rain = 0
KAM3 031228Z 12007KT 22/18 A301 RMK A01 T02200177  RH  077%=      5-min Rain = 0
KAM3 031229Z 11007KT 22/18 A3011 RMK A01 T02210178  RH  076%=      5-min Rain = 0
KAM3 031230Z 11006KT 22/18 A3011 RMK A01 T02210177  RH  076%=      5-min Rain = 0
KAM3 031231Z 12005KT 22/18 A3011 RMK A01 T02210177  RH  076%=      5-min Rain = 0
KAM3 031232Z 13004KT 22/18 A3011 RMK A01 T02210178  RH  076%=      5-min Rain = 0
KAM3 031233Z 13004KT 22/18 A3011 RMK A01 T02220178  RH  076%=      5-min Rain = 0
KAM3 031234Z 13004KT 22/18 A3011 RMK A01 T02220178  RH  076%=      5-min Rain = 0
KAM3 031235Z 13005KT 22/18 A3011 RMK A01 T02230178  RH  076%=      5-min Rain = 0
KAM3 031236Z 14006KT 22/18 A3011 RMK A01 T02230178  RH  076%=      5-min Rain = 0
KAM3 031237Z 14007KT 22/18 A3011 RMK A01 T02240178  RH  075%=      5-min Rain = 0
KAM3 031238Z 13006KT 22/18 A3011 RMK A01 T02240178  RH  075%=      5-min Rain = 0
KAM3 031239Z 13006KT 23/18 A301 RMK A01 T02250178  RH  075%=      5-min Rain = 0
KAM3 031240Z 12006KT 23/18 A301 RMK A01 T02250179  RH  075%=      5-min Rain = 0
KAM3 031241Z 12006KT 23/18 A301 RMK A01 T02260179  RH  075%=      5-min Rain = 0
KAM3 031242Z 12006KT 23/18 A3011 RMK A01 T02260179  RH  074%=      5-min Rain = 0
KAM3 031243Z 13006KT 23/18 A3011 RMK A01 T02260179  RH  074%=      5-min Rain = 0
KAM3 031244Z 12006KT 23/18 A3011 RMK A01 T02270179  RH  074%=      5-min Rain = 0
KAM3 031245Z 11006KT 23/18 A3011 RMK A01 T02280179  RH  074%=      5-min Rain = 0
KAM3 031246Z 11007KT 23/18 A3011 RMK A01 T02290179  RH  074%=      5-min Rain = 0
KAM3 031247Z 12007KT 23/18 A3011 RMK A01 T02290179  RH  074%=      5-min Rain = 0
KAM3 031248Z 12006KT 23/18 A3011 RMK A01 T02290180  RH  074%=      5-min Rain = 0
KAM3 031249Z 12007KT 23/18 A3011 RMK A01 T02300180  RH  073%=      5-min Rain = 0
KAM3 031250Z 12006KT 23/18 A3011 RMK A01 T02300180  RH  073%=      5-min Rain = 0
KAM3 031251Z 12005KT 23/18 A3011 RMK A01 T02310180  RH  073%=      5-min Rain = 0
KAM3 031252Z 13006KT 23/18 A3011 RMK A01 T02320180  RH  073%=      5-min Rain = 0
KAM3 031253Z 12004KT 23/18 A3011 RMK A01 T02330180  RH  072%=      5-min Rain = 0
KAM3 031254Z 13006KT 23/18 A3011 RMK A01 T02330180  RH  072%=      5-min Rain = 0
KAM3 031255Z 13005KT 23/18 A3011 RMK A01 T02340180  RH  072%=      5-min Rain = 0
KAM3 031256Z 12005KT 23/18 A3011 RMK A01 T02340180  RH  072%=      5-min Rain = 0
KAM3 031257Z 13006KT 24/18 A3011 RMK A01 T02350180  RH  071%=      5-min Rain = 0
KAM3 031258Z 13005KT 24/18 A3011 RMK A01 T02350180  RH  071%=      5-min Rain = 0
KAM3 031259Z 12007KT 24/18 A3011 RMK A01 T02360180  RH  071%=      5-min Rain = 0
KAM3 031300Z 13005KT 24/18 A3011 RMK A01 T02370180  RH  071%=      5-min Rain = 0
KAM3 031301Z 13006KT 24/18 A3011 RMK A01 T02370181  RH  071%=      5-min Rain = 0
KAM3 031302Z 14006KT 24/18 A3011 RMK A01 T02380181  RH  070%=      5-min Rain = 0
KAM3 031303Z 13007KT 24/18 A3011 RMK A01 T02390181  RH  070%=      5-min Rain = 0
KAM3 031304Z 14007KT 24/18 A3011 RMK A01 T02390180  RH  070%=      5-min Rain = 0
KAM3 031305Z 13006KT 24/18 A3011 RMK A01 T02390181  RH  070%=      5-min Rain = 0
KAM3 031306Z 14004KT 24/18 A3011 RMK A01 T02400182  RH  070%=      5-min Rain = 0
KAM3 031307Z 15006KT 24/18 A3011 RMK A01 T02430182  RH  069%=      5-min Rain = 0
KAM3 031308Z 14006KT 24/18 A3011 RMK A01 T02440182  RH  068%=      5-min Rain = 0
KAM3 031309Z 14007KT 24/18 A3011 RMK A01 T02440182  RH  068%=      5-min Rain = 0
KAM3 031310Z 14008KT 25/18 A3011 RMK A01 T02450181  RH  068%=      5-min Rain = 0
KAM3 031311Z 14008KT 25/18 A3011 RMK A01 T02450181  RH  067%=      5-min Rain = 0
KAM3 031312Z 14006KT 25/18 A3011 RMK A01 T02450181  RH  068%=      5-min Rain = 0
KAM3 031313Z 13007KT 25/18 A3011 RMK A01 T02450181  RH  068%=      5-min Rain = 0
KAM3 031314Z 13006KT 25/18 A3011 RMK A01 T02450181  RH  067%=      5-min Rain = 0
KAM3 031315Z 13007KT 25/18 A3011 RMK A01 T02450181  RH  067%=      5-min Rain = 0
KAM3 031316Z 14006KT 25/18 A3011 RMK A01 T02450181  RH  068%=      5-min Rain = 0
KAM3 031317Z 15005KT 25/18 A3011 RMK A01 T02460181  RH  067%=      5-min Rain = 0
KAM3 031318Z 16006KT 25/18 A3011 RMK A01 T02460182  RH  067%=      5-min Rain = 0
KAM3 031319Z 15009KT 25/18 A3011 RMK A01 T02480181  RH  066%=      5-min Rain = 0
KAM3 031320Z 15006KT 25/18 A3011 RMK A01 T02480181  RH  066%=      5-min Rain = 0
KAM3 031321Z 15007KT 25/18 A3011 RMK A01 T02480181  RH  066%=      5-min Rain = 0
KAM3 031322Z 15007KT 25/18 A3011 RMK A01 T02480181  RH  066%=      5-min Rain = 0
KAM3 031323Z 14008KT 25/18 A3011 RMK A01 T02480181  RH  066%=      5-min Rain = 0
KAM3 031324Z 14008KT 25/18 A3011 RMK A01 T02480180  RH  066%=      5-min Rain = 0
KAM3 031325Z 14008KT 25/18 A3011 RMK A01 T02480180  RH  066%=      5-min Rain = 0
KAM3 031326Z 14008KT 25/18 A3011 RMK A01 T02490180  RH  066%=      5-min Rain = 0
KAM3 031327Z 14008KT 25/18 A3011 RMK A01 T02490181  RH  066%=      5-min Rain = 0
KAM3 031328Z 13008KT 25/18 A3011 RMK A01 T02490180  RH  066%=      5-min Rain = 0
KAM3 031329Z 13007KT 25/18 A3011 RMK A01 T02490181  RH  066%=      5-min Rain = 0
KAM3 031330Z 13008KT 25/18 A3011 RMK A01 T02490181  RH  066%=      5-min Rain = 0
KAM3 031331Z 14007KT 25/18 A3011 RMK A01 T02500182  RH  066%=      5-min Rain = 0
KAM3 031332Z 14005KT 25/18 A3011 RMK A01 T02530183  RH  065%=      5-min Rain = 0
KAM3 031333Z 15005KT 25/18 A3011 RMK A01 T02540183  RH  065%=      5-min Rain = 0
KAM3 031334Z 15006KT 26/18 A3011 RMK A01 T02560183  RH  064%=      5-min Rain = 0
KAM3 031335Z 16008KT 26/18 A3011 RMK A01 T02560182  RH  064%=      5-min Rain = 0
KAM3 031336Z 16008KT 26/18 A3011 RMK A01 T02550182  RH  064%=      5-min Rain = 0
KAM3 031337Z 16008KT 25/18 A3011 RMK A01 T02540182  RH  064%=      5-min Rain = 0
KAM3 031338Z 14010KT 25/18 A3011 RMK A01 T02540182  RH  064%=      5-min Rain = 0
KAM3 031339Z 14009KT 25/18 A3011 RMK A01 T02530181  RH  064%=      5-min Rain = 0
KAM3 031340Z 14007KT 25/18 A3011 RMK A01 T02530181  RH  064%=      5-min Rain = 0
KAM3 031341Z 14008KT 25/18 A3011 RMK A01 T02520181  RH  065%=      5-min Rain = 0
KAM3 031342Z 15007KT 25/18 A3011 RMK A01 T02540181  RH  064%=      5-min Rain = 0
KAM3 031343Z 13007KT 26/18 A3011 RMK A01 T02550182  RH  064%=      5-min Rain = 0
KAM3 031344Z 14007KT 26/18 A3011 RMK A01 T02550182  RH  064%=      5-min Rain = 0
KAM3 031345Z 14008KT 26/18 A3011 RMK A01 T02570182  RH  063%=      5-min Rain = 0
KAM3 031346Z 14009KT 26/18 A3011 RMK A01 T02570182  RH  063%=      5-min Rain = 0
KAM3 031347Z 15010KT 26/18 A3011 RMK A01 T02570180  RH  062%=      5-min Rain = 0
KAM3 031348Z 15010KT 26/18 A3011 RMK A01 T02570179  RH  062%=      5-min Rain = 0
KAM3 031349Z 16007KT 26/18 A3011 RMK A01 T02560180  RH  063%=      5-min Rain = 0
KAM3 031350Z 14009KT 26/18 A3011 RMK A01 T02560179  RH  062%=      5-min Rain = 0
KAM3 031351Z 14009KT 26/18 A3012 RMK A01 T02560179  RH  062%=      5-min Rain = 0
KAM3 031352Z 14009KT 26/18 A3012 RMK A01 T02570179  RH  062%=      5-min Rain = 0
KAM3 031353Z 15009KT 26/18 A3012 RMK A01 T02560180  RH  062%=      5-min Rain = 0
KAM3 031354Z 15009KT 26/18 A3012 RMK A01 T02560179  RH  062%=      5-min Rain = 0
KAM3 031355Z 14007KT 26/18 A3012 RMK A01 T02570179  RH  062%=      5-min Rain = 0
KAM3 031356Z 14008KT 26/18 A3012 RMK A01 T02570179  RH  062%=      5-min Rain = 0
KAM3 031357Z 13008KT 26/18 A3012 RMK A01 T02580178  RH  061%=      5-min Rain = 0
KAM3 031358Z 13007KT 26/18 A3012 RMK A01 T02580179  RH  062%=      5-min Rain = 0
KAM3 031359Z 13007KT 26/18 A3012 RMK A01 T02590181  RH  062%=      5-min Rain = 0
KAM3 031400Z 14008KT 26/18 A3012 RMK A01 T02600180  RH  061%=      5-min Rain = 0
KAM3 031401Z 14006KT 26/18 A3012 RMK A01 T02610179  RH  061%=      5-min Rain = 0
KAM3 031402Z 14007KT 26/18 A3012 RMK A01 T02610179  RH  061%=      5-min Rain = 0
KAM3 031403Z 14007KT 26/18 A3012 RMK A01 T02620179  RH  060%=      5-min Rain = 0
KAM3 031404Z 14008KT 26/18 A3012 RMK A01 T02630178  RH  059%=      5-min Rain = 0
KAM3 031405Z 14007KT 26/18 A3012 RMK A01 T02630179  RH  060%=      5-min Rain = 0
KAM3 031406Z 14006KT 26/18 A3012 RMK A01 T02630179  RH  060%=      5-min Rain = 0
KAM3 031407Z 14007KT 26/18 A3012 RMK A01 T02640177  RH  059%=      5-min Rain = 0
KAM3 031408Z 13007KT 26/18 A3012 RMK A01 T02640177  RH  059%=      5-min Rain = 0
KAM3 031409Z 13006KT 26/18 A3012 RMK A01 T02630177  RH  059%=      5-min Rain = 0
KAM3 031410Z 14007KT 26/18 A3012 RMK A01 T02630177  RH  059%=      5-min Rain = 0
KAM3 031411Z 13006KT 27/18 A3012 RMK A01 T02650177  RH  059%=      5-min Rain = 0
KAM3 031412Z 12006KT 27/18 A3012 RMK A01 T02650176  RH  058%=      5-min Rain = 0
KAM3 031413Z 12005KT 27/18 A3012 RMK A01 T02650177  RH  058%=      5-min Rain = 0
KAM3 031414Z 11004KT 27/18 A3012 RMK A01 T02660176  RH  058%=      5-min Rain = 0
KAM3 031415Z 10005KT 27/18 A3012 RMK A01 T02660176  RH  058%=      5-min Rain = 0
KAM3 031416Z 12006KT 27/18 A3012 RMK A01 T02670176  RH  057%=      5-min Rain = 0
KAM3 031417Z 12006KT 27/18 A3012 RMK A01 T02660176  RH  058%=      5-min Rain = 0
KAM3 031418Z 15007KT 27/18 A3012 RMK A01 T02670176  RH  058%=      5-min Rain = 0
KAM3 031419Z 14007KT 27/18 A3012 RMK A01 T02670175  RH  057%=      5-min Rain = 0
KAM3 031420Z 14005KT 27/18 A3012 RMK A01 T02670175  RH  057%=      5-min Rain = 0
KAM3 031421Z 14005KT 27/18 A3012 RMK A01 T02660175  RH  057%=      5-min Rain = 0
KAM3 031422Z 16004KT 27/18 A3012 RMK A01 T02670175  RH  057%=      5-min Rain = 0
KAM3 031423Z 14005KT 27/18 A3012 RMK A01 T02680176  RH  057%=      5-min Rain = 0
KAM3 031424Z 13006KT 27/18 A3012 RMK A01 T02700175  RH  056%=      5-min Rain = 0
KAM3 031425Z 14005KT 27/18 A3012 RMK A01 T02700176  RH  056%=      5-min Rain = 0
KAM3 031426Z 15006KT 27/18 A3012 RMK A01 T02720176  RH  056%=      5-min Rain = 0
KAM3 031427Z 15006KT 27/18 A3012 RMK A01 T02730177  RH  056%=      5-min Rain = 0
KAM3 031428Z 16004KT 27/18 A3012 RMK A01 T02720176  RH  055%=      5-min Rain = 0
KAM3 031429Z 13003KT 27/18 A3012 RMK A01 T02720177  RH  056%=      5-min Rain = 0
KAM3 031430Z 11005KT 27/18 A3012 RMK A01 T02720175  RH  056%=      5-min Rain = 0
KAM3 031431Z 13005KT 28/18 A3012 RMK A01 T02750176  RH  055%=      5-min Rain = 0
KAM3 031432Z 13004KT 28/18 A3012 RMK A01 T02770175  RH  054%=      5-min Rain = 0
KAM3 031433Z 13006KT 28/18 A3012 RMK A01 T02760175  RH  054%=      5-min Rain = 0
KAM3 031434Z 12006KT 28/17 A3012 RMK A01 T02760174  RH  054%=      5-min Rain = 0
KAM3 031435Z 13006KT 28/17 A3012 RMK A01 T02750173  RH  054%=      5-min Rain = 0
KAM3 031436Z 14007KT 28/17 A3012 RMK A01 T02750174  RH  054%=      5-min Rain = 0
KAM3 031437Z 14006KT 28/17 A3012 RMK A01 T02750174  RH  054%=      5-min Rain = 0
KAM3 031438Z 12004KT 28/17 A3012 RMK A01 T02750174  RH  054%=      5-min Rain = 0
KAM3 031439Z 14005KT 28/17 A3012 RMK A01 T02750174  RH  054%=      5-min Rain = 0
KAM3 031440Z 14004KT 28/17 A3012 RMK A01 T02760173  RH  053%=      5-min Rain = 0
KAM3 031441Z 14005KT 28/17 A3012 RMK A01 T02760173  RH  053%=      5-min Rain = 0
KAM3 031442Z 16004KT 28/18 A3012 RMK A01 T02770175  RH  054%=      5-min Rain = 0
KAM3 031443Z 10004KT 28/17 A3012 RMK A01 T02780174  RH  053%=      5-min Rain = 0
KAM3 031444Z 10005KT 28/17 A3012 RMK A01 T02790171  RH  052%=      5-min Rain = 0
KAM3 031445Z 10006KT 28/17 A3012 RMK A01 T02800172  RH  052%=      5-min Rain = 0
KAM3 031446Z 10004KT 28/17 A3012 RMK A01 T02790172  RH  052%=      5-min Rain = 0
KAM3 031447Z 08004KT 28/17 A3012 RMK A01 T02790171  RH  052%=      5-min Rain = 0
KAM3 031448Z 10003KT 28/17 A3013 RMK A01 T02800171  RH  051%=      5-min Rain = 0
KAM3 031449Z 10005KT 28/17 A3013 RMK A01 T02810171  RH  051%=      5-min Rain = 0
KAM3 031450Z 11006KT 28/17 A3013 RMK A01 T02820172  RH  051%=      5-min Rain = 0
KAM3 031451Z 14006KT 28/17 A3013 RMK A01 T02820172  RH  051%=      5-min Rain = 0
KAM3 031452Z 11005KT 28/17 A3013 RMK A01 T02820171  RH  051%=      5-min Rain = 0
KAM3 031453Z 11002KT 28/17 A3013 RMK A01 T02810171  RH  051%=      5-min Rain = 0
KAM3 031454Z 10001KT 28/17 A3013 RMK A01 T02810171  RH  051%=      5-min Rain = 0
KAM3 031455Z 07003KT 28/17 A3012 RMK A01 T02810171  RH  051%=      5-min Rain = 0
KAM3 031456Z 03003KT 28/17 A3012 RMK A01 T02820171  RH  051%=      5-min Rain = 0
KAM3 031457Z 05002KT 28/17 A3012 RMK A01 T02810171  RH  051%=      5-min Rain = 0
KAM3 031458Z 02000KT 28/17 A3012 RMK A01 T02810170  RH  051%=      5-min Rain = 0
KAM3 031459Z 11000KT 28/17 A3012 RMK A01 T02810170  RH  051%=      5-min Rain = 0
KAM3 031500Z 12004KT 28/17 A3012 RMK A01 T02840172  RH  051%=      5-min Rain = 0
KAM3 031501Z 12004KT 29/17 A3012 RMK A01 T02860170  RH  049%=      5-min Rain = 0
KAM3 031502Z 14005KT 29/17 A3012 RMK A01 T02870171  RH  050%=      5-min Rain = 0
KAM3 031503Z 14006KT 29/17 A3012 RMK A01 T02880169  RH  048%=      5-min Rain = 0
KAM3 031504Z 18005KT 29/17 A3012 RMK A01 T02870167  RH  048%=      5-min Rain = 0
KAM3 031505Z 21005KT 29/17 A3012 RMK A01 T02850166  RH  049%=      5-min Rain = 0
KAM3 031506Z 20003KT 28/17 A3012 RMK A01 T02840166  RH  049%=      5-min Rain = 0
KAM3 031507Z 19004KT 28/17 A3012 RMK A01 T02840167  RH  049%=      5-min Rain = 0
KAM3 031508Z 20006KT 29/17 A3012 RMK A01 T02870166  RH  048%=      5-min Rain = 0
KAM3 031509Z 20005KT 29/16 A3012 RMK A01 T02880163  RH  047%=      5-min Rain = 0
KAM3 031510Z 21004KT 29/16 A3012 RMK A01 T02880161  RH  046%=      5-min Rain = 0
KAM3 031511Z 21004KT 29/16 A3012 RMK A01 T02870158  RH  046%=      5-min Rain = 0
KAM3 031512Z 24005KT 29/16 A3012 RMK A01 T02870157  RH  045%=      5-min Rain = 0
KAM3 031513Z 26004KT 29/16 A3012 RMK A01 T02870156  RH  045%=      5-min Rain = 0
KAM3 031514Z 28004KT 29/16 A3012 RMK A01 T02860155  RH  045%=      5-min Rain = 0
KAM3 031515Z 22003KT 29/16 A3012 RMK A01 T02850157  RH  046%=      5-min Rain = 0
KAM3 031516Z 16002KT 29/16 A3012 RMK A01 T02870162  RH  047%=      5-min Rain = 0
KAM3 031517Z 17006KT 29/16 A3012 RMK A01 T02890161  RH  046%=      5-min Rain = 0
KAM3 031518Z 18006KT 29/16 A3012 RMK A01 T02900159  RH  045%=      5-min Rain = 0
KAM3 031519Z 17005KT 29/16 A3012 RMK A01 T02900157  RH  045%=      5-min Rain = 0
KAM3 031520Z 17003KT 29/16 A3012 RMK A01 T02900157  RH  044%=      5-min Rain = 0
KAM3 031521Z 16002KT 29/16 A3012 RMK A01 T02900157  RH  045%=      5-min Rain = 0
KAM3 031522Z 14003KT 29/16 A3012 RMK A01 T02900156  RH  044%=      5-min Rain = 0
KAM3 031523Z 12001KT 29/16 A3012 RMK A01 T02900155  RH  044%=      5-min Rain = 0
KAM3 031524Z 11001KT 29/16 A3012 RMK A01 T02890157  RH  045%=      5-min Rain = 0
KAM3 031525Z 15004KT 29/16 A3012 RMK A01 T02890158  RH  045%=      5-min Rain = 0
KAM3 031526Z 11005KT 29/16 A3012 RMK A01 T02910161  RH  045%=      5-min Rain = 0
KAM3 031527Z 10002KT 29/16 A3012 RMK A01 T02920159  RH  044%=      5-min Rain = 0
KAM3 031528Z 19003KT 29/16 A3012 RMK A01 T02920161  RH  045%=      5-min Rain = 0
KAM3 031529Z 21005KT 30/16 A3012 RMK A01 T02950164  RH  045%=      5-min Rain = 0
KAM3 031530Z 22005KT 30/16 A3012 RMK A01 T02960163  RH  045%=      5-min Rain = 0
KAM3 031531Z 22004KT 29/16 A3012 RMK A01 T02940163  RH  045%=      5-min Rain = 0
KAM3 031532Z 17004KT 29/16 A3012 RMK A01 T02940164  RH  045%=      5-min Rain = 0
KAM3 031533Z 18002KT 30/16 A3012 RMK A01 T02970163  RH  044%=      5-min Rain = 0
KAM3 031534Z 15002KT 30/16 A3012 RMK A01 T03000163  RH  044%=      5-min Rain = 0
KAM3 031535Z 19005KT 30/16 A3012 RMK A01 T03010162  RH  043%=      5-min Rain = 0
KAM3 031536Z 18003KT 30/16 A3012 RMK A01 T02990161  RH  043%=      5-min Rain = 0
KAM3 031537Z 15006KT 30/16 A3012 RMK A01 T02970161  RH  044%=      5-min Rain = 0
KAM3 031538Z 15006KT 30/16 A3012 RMK A01 T02970161  RH  044%=      5-min Rain = 0
KAM3 031539Z 14004KT 30/16 A3012 RMK A01 T02970161  RH  044%=      5-min Rain = 0
KAM3 031540Z 12003KT 30/16 A3012 RMK A01 T02970161  RH  044%=      5-min Rain = 0
KAM3 031541Z 09002KT 30/16 A3012 RMK A01 T02980161  RH  043%=      5-min Rain = 0
KAM3 031542Z 06002KT 30/16 A3011 RMK A01 T03000161  RH  043%=      5-min Rain = 0
KAM3 031543Z 06002KT 30/16 A3011 RMK A01 T03010161  RH  043%=      5-min Rain = 0
KAM3 031544Z 05003KT 30/16 A3011 RMK A01 T03020161  RH  043%=      5-min Rain = 0
KAM3 031545Z 11002KT 30/16 A3011 RMK A01 T03020161  RH  043%=      5-min Rain = 0
KAM3 031546Z 17002KT 30/16 A3011 RMK A01 T03020161  RH  042%=      5-min Rain = 0
KAM3 031547Z 17000KT 30/16 A3011 RMK A01 T03010160  RH  043%=      5-min Rain = 0
KAM3 031548Z 10004KT 30/16 A3011 RMK A01 T03010161  RH  043%=      5-min Rain = 0
KAM3 031549Z 12005KT 30/16 A3011 RMK A01 T03030159  RH  042%=      5-min Rain = 0
KAM3 031550Z 12004KT 30/16 A3011 RMK A01 T03020158  RH  042%=      5-min Rain = 0
KAM3 031551Z 11004KT 30/16 A3011 RMK A01 T03020161  RH  043%=      5-min Rain = 0
KAM3 031552Z 14006KT 31/16 A3011 RMK A01 T03050161  RH  042%=      5-min Rain = 0
KAM3 031553Z 18006KT 31/16 A3011 RMK A01 T03080159  RH  041%=      5-min Rain = 0
KAM3 031554Z 19005KT 31/16 A3011 RMK A01 T03060158  RH  041%=      5-min Rain = 0
KAM3 031555Z 20004KT 31/16 A3011 RMK A01 T03060157  RH  041%=      5-min Rain = 0
KAM3 031556Z 15005KT 31/16 A3011 RMK A01 T03050158  RH  041%=      5-min Rain = 0
KAM3 031557Z 15004KT 31/16 A3012 RMK A01 T03060159  RH  041%=      5-min Rain = 0
KAM3 031558Z 25002KT 31/16 A3012 RMK A01 T03080158  RH  040%=      5-min Rain = 0
KAM3 031559Z 25002KT 31/16 A3012 RMK A01 T03090156  RH  040%=      5-min Rain = 0
KAM3 031600Z 10002KT 31/16 A3012 RMK A01 T03070156  RH  040%=      5-min Rain = 0
KAM3 031601Z 09003KT 31/16 A3012 RMK A01 T03080157  RH  040%=      5-min Rain = 0
KAM3 031602Z 11005KT 31/16 A3012 RMK A01 T03090157  RH  040%=      5-min Rain = 0
KAM3 031603Z 17005KT 31/16 A3012 RMK A01 T03110158  RH  040%=      5-min Rain = 0
KAM3 031604Z 17006KT 31/16 A3012 RMK A01 T03130158  RH  039%=      5-min Rain = 0
KAM3 031605Z 18004KT 31/16 A3012 RMK A01 T03130158  RH  039%=      5-min Rain = 0
KAM3 031606Z 16005KT 31/16 A3012 RMK A01 T03090155  RH  039%=      5-min Rain = 0
KAM3 031607Z 16002KT 31/15 A3012 RMK A01 T03070154  RH  040%=      5-min Rain = 0
KAM3 031608Z 18003KT 31/16 A3012 RMK A01 T03060155  RH  040%=      5-min Rain = 0
KAM3 031609Z 15002KT 31/15 A3012 RMK A01 T03070154  RH  040%=      5-min Rain = 0
KAM3 031610Z 20003KT 31/16 A3012 RMK A01 T03070155  RH  040%=      5-min Rain = 0
KAM3 031611Z 21006KT 31/16 A3012 RMK A01 T03080155  RH  040%=      5-min Rain = 0
KAM3 031612Z 22004KT 31/16 A3012 RMK A01 T03100155  RH  039%=      5-min Rain = 0
KAM3 031613Z 23004KT 31/15 A3012 RMK A01 T03090154  RH  039%=      5-min Rain = 0
KAM3 031614Z 19001KT 31/15 A3012 RMK A01 T03070153  RH  039%=      5-min Rain = 0
KAM3 031615Z 11003KT 31/15 A3012 RMK A01 T03060154  RH  040%=      5-min Rain = 0
KAM3 031616Z 13005KT 31/15 A3012 RMK A01 T03080154  RH  039%=      5-min Rain = 0
KAM3 031617Z 15007KT 31/16 A3012 RMK A01 T03090155  RH  039%=      5-min Rain = 0
KAM3 031618Z 12005KT 31/15 A3012 RMK A01 T03100154  RH  039%=      5-min Rain = 0
KAM3 031619Z 14006KT 31/16 A3012 RMK A01 T03090156  RH  040%=      5-min Rain = 0
KAM3 031620Z 13006KT 31/16 A3012 RMK A01 T03110155  RH  039%=      5-min Rain = 0
KAM3 031621Z 12005KT 31/16 A3012 RMK A01 T03110155  RH  039%=      5-min Rain = 0
KAM3 031622Z 11005KT 31/16 A3012 RMK A01 T03110155  RH  039%=      5-min Rain = 0
KAM3 031623Z 09004KT 31/15 A3012 RMK A01 T03110154  RH  039%=      5-min Rain = 0
KAM3 031624Z 10005KT 31/16 A3012 RMK A01 T03100155  RH  039%=      5-min Rain = 0
KAM3 031625Z 12005KT 31/15 A3012 RMK A01 T03120154  RH  039%=      5-min Rain = 0
KAM3 031626Z 13004KT 31/16 A3012 RMK A01 T03140155  RH  038%=      5-min Rain = 0
KAM3 031627Z 15001KT 32/15 A3012 RMK A01 T03160154  RH  038%=      5-min Rain = 0
KAM3 031628Z 11006KT 32/16 A3011 RMK A01 T03160155  RH  038%=      5-min Rain = 0
KAM3 031629Z 12007KT 32/15 A3011 RMK A01 T03170154  RH  037%=      5-min Rain = 0
KAM3 031630Z 12007KT 32/15 A3011 RMK A01 T03180154  RH  037%=      5-min Rain = 0
KAM3 031631Z 12005KT 32/15 A3012 RMK A01 T03160153  RH  037%=      5-min Rain = 0
KAM3 031632Z 12004KT 31/15 A3012 RMK A01 T03130153  RH  038%=      5-min Rain = 0
KAM3 031633Z 13004KT 31/15 A3012 RMK A01 T03130154  RH  038%=      5-min Rain = 0
KAM3 031634Z 12005KT 32/15 A3012 RMK A01 T03160154  RH  038%=      5-min Rain = 0
KAM3 031635Z 14004KT 32/15 A3012 RMK A01 T03180152  RH  037%=      5-min Rain = 0
KAM3 031636Z 14001KT 32/15 A3012 RMK A01 T03170153  RH  037%=      5-min Rain = 0
KAM3 031637Z 14004KT 32/15 A3012 RMK A01 T03170153  RH  037%=      5-min Rain = 0
KAM3 031638Z 13007KT 32/15 A3012 RMK A01 T03180153  RH  037%=      5-min Rain = 0
KAM3 031639Z 12006KT 32/15 A3012 RMK A01 T03180153  RH  037%=      5-min Rain = 0
KAM3 031640Z 13007KT 32/15 A3012 RMK A01 T03170153  RH  037%=      5-min Rain = 0
KAM3 031641Z 14005KT 32/15 A3012 RMK A01 T03160153  RH  037%=      5-min Rain = 0
KAM3 031642Z 14003KT 32/15 A3012 RMK A01 T03160153  RH  038%=      5-min Rain = 0
KAM3 031643Z 13003KT 32/15 A3012 RMK A01 T03160153  RH  037%=      5-min Rain = 0
KAM3 031644Z 12004KT 32/15 A3012 RMK A01 T03160154  RH  037%=      5-min Rain = 0
KAM3 031645Z 13003KT 32/16 A3012 RMK A01 T03180155  RH  037%=      5-min Rain = 0
KAM3 031646Z 11004KT 32/16 A3012 RMK A01 T03220156  RH  037%=      5-min Rain = 0
KAM3 031647Z 09002KT 32/16 A3012 RMK A01 T03230155  RH  036%=      5-min Rain = 0
KAM3 031648Z 09005KT 32/16 A3012 RMK A01 T03230155  RH  036%=      5-min Rain = 0
KAM3 031649Z 10004KT 32/15 A3012 RMK A01 T03230154  RH  036%=      5-min Rain = 0
KAM3 031650Z 10005KT 32/15 A3012 RMK A01 T03220154  RH  036%=      5-min Rain = 0
KAM3 031651Z 11004KT 32/15 A3012 RMK A01 T03210154  RH  036%=      5-min Rain = 0
KAM3 031652Z 16004KT 32/15 A3012 RMK A01 T03180153  RH  037%=      5-min Rain = 0
KAM3 031653Z 17004KT 32/15 A3012 RMK A01 T03180154  RH  037%=      5-min Rain = 0
KAM3 031654Z 15002KT 32/16 A3012 RMK A01 T03200155  RH  037%=      5-min Rain = 0
KAM3 031655Z 14003G8KT 32/15 A3012 RMK A01 T03220154  RH  036%=      5-min Rain = 0
KAM3 031656Z 08004KT 32/16 A3012 RMK A01 T03240155  RH  036%=      5-min Rain = 0
KAM3 031657Z 13005KT 33/15 A3012 RMK A01 T03250154  RH  036%=      5-min Rain = 0
KAM3 031658Z 13005KT 33/15 A3012 RMK A01 T03260154  RH  036%=      5-min Rain = 0
KAM3 031659Z 16004KT 33/15 A3012 RMK A01 T03260154  RH  036%=      5-min Rain = 0
KAM3 031700Z 17003KT 33/15 A3012 RMK A01 T03260153  RH  035%=      5-min Rain = 0
KAM3 031701Z 20003KT 33/15 A3012 RMK A01 T03260153  RH  035%=      5-min Rain = 0
KAM3 031702Z 23002KT 32/15 A3012 RMK A01 T03240152  RH  035%=      5-min Rain = 0
KAM3 031703Z 01001KT 32/15 A3012 RMK A01 T03210152  RH  036%=      5-min Rain = 0
KAM3 031704Z 03002KT 32/15 A3012 RMK A01 T03210154  RH  037%=      5-min Rain = 0
KAM3 031705Z 09005KT 32/15 A3012 RMK A01 T03240154  RH  036%=      5-min Rain = 0
KAM3 031706Z 10006KT 33/15 A3012 RMK A01 T03260154  RH  036%=      5-min Rain = 0
KAM3 031707Z 11006KT 33/15 A3012 RMK A01 T03280153  RH  035%=      5-min Rain = 0
KAM3 031708Z 10005KT 33/15 A3012 RMK A01 T03280154  RH  035%=      5-min Rain = 0
KAM3 031709Z 08004KT 33/15 A3012 RMK A01 T03270152  RH  035%=      5-min Rain = 0
KAM3 031710Z 06004KT 33/15 A3011 RMK A01 T03260152  RH  035%=      5-min Rain = 0
KAM3 031711Z 04001KT 33/15 A3011 RMK A01 T03250152  RH  035%=      5-min Rain = 0
KAM3 031712Z 31001KT 33/15 A3011 RMK A01 T03250152  RH  035%=      5-min Rain = 0
KAM3 031713Z 28002KT 33/15 A3011 RMK A01 T03260153  RH  035%=      5-min Rain = 0
KAM3 031714Z 23003KT 33/15 A3011 RMK A01 T03280153  RH  035%=      5-min Rain = 0
KAM3 031715Z 21003KT 33/15 A3011 RMK A01 T03310154  RH  035%=      5-min Rain = 0
KAM3 031716Z 22002KT 33/15 A3011 RMK A01 T03320154  RH  034%=      5-min Rain = 0
KAM3 031717Z 22004KT 33/15 A3011 RMK A01 T03330153  RH  034%=      5-min Rain = 0
KAM3 031718Z 16004KT 33/15 A3011 RMK A01 T03340154  RH  034%=      5-min Rain = 0
KAM3 031719Z 17003KT 33/15 A3011 RMK A01 T03340152  RH  034%=      5-min Rain = 0
KAM3 031720Z 16003KT 33/15 A3011 RMK A01 T03320154  RH  034%=      5-min Rain = 0
KAM3 031721Z 14004KT 33/15 A3011 RMK A01 T03330153  RH  034%=      5-min Rain = 0
KAM3 031722Z 12006KT 34/16 A3011 RMK A01 T03350156  RH  034%=      5-min Rain = 0
KAM3 031723Z 10004KT 34/16 A3011 RMK A01 T03350155  RH  034%=      5-min Rain = 0
KAM3 031724Z 12002KT 33/16 A3011 RMK A01 T03330156  RH  035%=      5-min Rain = 0
KAM3 031725Z 17001KT 33/16 A3011 RMK A01 T03330156  RH  035%=      5-min Rain = 0
KAM3 031726Z 19004KT 34/16 A3011 RMK A01 T03350157  RH  034%=      5-min Rain = 0
KAM3 031727Z 17004KT 34/16 A3011 RMK A01 T03360157  RH  034%=      5-min Rain = 0
KAM3 031728Z 11007KT 34/16 A3011 RMK A01 T03370157  RH  034%=      5-min Rain = 0
KAM3 031729Z 09007KT 34/16 A3011 RMK A01 T03410155  RH  033%=      5-min Rain = 0
KAM3 031730Z 07008KT 35/15 A3011 RMK A01 T03450153  RH  032%=      5-min Rain = 0
KAM3 031731Z 06009KT 34/15 A3011 RMK A01 T03440152  RH  032%=      5-min Rain = 0
KAM3 031732Z 05007KT 34/15 A3011 RMK A01 T03370150  RH  033%=      5-min Rain = 0
KAM3 031733Z 12005KT 33/15 A3011 RMK A01 T03330152  RH  034%=      5-min Rain = 0
KAM3 031734Z 13006KT 34/15 A3011 RMK A01 T03350154  RH  034%=      5-min Rain = 0
KAM3 031735Z 12008KT 34/16 A3011 RMK A01 T03390155  RH  033%=      5-min Rain = 0
KAM3 031736Z 13007KT 34/15 A3011 RMK A01 T03400153  RH  033%=      5-min Rain = 0
KAM3 031737Z 15006KT 34/15 A3011 RMK A01 T03360150  RH  033%=      5-min Rain = 0
KAM3 031738Z 18005KT 33/15 A3011 RMK A01 T03340151  RH  033%=      5-min Rain = 0
KAM3 031739Z 21005KT 33/15 A3011 RMK A01 T03340151  RH  033%=      5-min Rain = 0
KAM3 031740Z 20005KT 34/15 A301 RMK A01 T03350153  RH  034%=      5-min Rain = 0
KAM3 031741Z 17005KT 34/15 A301 RMK A01 T03360151  RH  033%=      5-min Rain = 0
KAM3 031742Z 16004KT 33/15 A301 RMK A01 T03320150  RH  034%=      5-min Rain = 0
KAM3 031743Z 11006KT 33/15 A301 RMK A01 T03290151  RH  034%=      5-min Rain = 0
KAM3 031744Z 07007KT 33/15 A301 RMK A01 T03320151  RH  034%=      5-min Rain = 0
KAM3 031745Z 08005KT 34/15 A301 RMK A01 T03370151  RH  033%=      5-min Rain = 0
KAM3 031746Z 11003KT 34/15 A301 RMK A01 T03380152  RH  033%=      5-min Rain = 0
KAM3 031747Z 07006KT 34/15 A301 RMK A01 T03400151  RH  032%=      5-min Rain = 0
KAM3 031748Z 08005KT 34/15 A301 RMK A01 T03410150  RH  032%=      5-min Rain = 0
KAM3 031749Z 08005KT 34/15 A301 RMK A01 T03370150  RH  033%=      5-min Rain = 0
KAM3 031750Z 07006KT 34/15 A301 RMK A01 T03370153  RH  033%=      5-min Rain = 0
KAM3 031751Z 09009KT 34/15 A301 RMK A01 T03430154  RH  032%=      5-min Rain = 0
KAM3 031752Z 09007KT 34/15 A301 RMK A01 T03420154  RH  032%=      5-min Rain = 0
KAM3 031753Z 11010KT 34/15 A301 RMK A01 T03420153  RH  032%=      5-min Rain = 0
KAM3 031754Z 11010KT 34/15 A301 RMK A01 T03400152  RH  032%=      5-min Rain = 0
KAM3 031755Z 13009G14KT 34/15 A301 RMK A01 T03370151  RH  033%=      5-min Rain = 0
KAM3 031756Z 17006KT 34/15 A301 RMK A01 T03350151  RH  033%=      5-min Rain = 0
KAM3 031757Z 16008KT 34/15 A301 RMK A01 T03380152  RH  033%=      5-min Rain = 0
KAM3 031758Z 16006KT 34/15 A301 RMK A01 T03390150  RH  032%=      5-min Rain = 0
KAM3 031759Z 12005KT 34/15 A301 RMK A01 T03370150  RH  033%=      5-min Rain = 0
KAM3 031800Z 09007KT 34/15 A301 RMK A01 T03400151  RH  032%=      5-min Rain = 0
KAM3 031801Z 06008KT 35/15 A301 RMK A01 T03450151  RH  031%=      5-min Rain = 0
KAM3 031802Z 08007G13KT 35/15 A301 RMK A01 T03470150  RH  031%=      5-min Rain = 0
KAM3 031803Z 11009KT 34/15 A301 RMK A01 T03440149  RH  031%=      5-min Rain = 0
KAM3 031804Z 15012KT 34/15 A301 RMK A01 T03440147  RH  031%=      5-min Rain = 0
KAM3 031805Z 14010KT 35/15 A301 RMK A01 T03450146  RH  030%=      5-min Rain = 0
KAM3 031806Z 13005KT 34/15 A301 RMK A01 T03440146  RH  031%=      5-min Rain = 0
KAM3 031807Z 14008KT 34/15 A301 RMK A01 T03420147  RH  031%=      5-min Rain = 0
KAM3 031808Z 12005KT 34/15 A301 RMK A01 T03400148  RH  031%=      5-min Rain = 0
KAM3 031809Z 08007KT 34/15 A301 RMK A01 T03400148  RH  032%=      5-min Rain = 0
KAM3 031810Z 06006KT 34/15 A301 RMK A01 T03420147  RH  031%=      5-min Rain = 0
KAM3 031811Z 01005KT 34/15 A301 RMK A01 T03410147  RH  031%=      5-min Rain = 0
KAM3 031812Z 09004KT 34/15 A301 RMK A01 T03400149  RH  032%=      5-min Rain = 0
KAM3 031813Z 13004KT 34/15 A301 RMK A01 T03420148  RH  031%=      5-min Rain = 0
KAM3 031814Z 12005KT 34/15 A301 RMK A01 T03440149  RH  031%=      5-min Rain = 0
KAM3 031815Z 12005KT 35/15 A301 RMK A01 T03470148  RH  030%=      5-min Rain = 0
KAM3 031816Z 12006G11KT 35/15 A301 RMK A01 T03470147  RH  030%=      5-min Rain = 0
KAM3 031817Z 12009KT 35/15 A301 RMK A01 T03470147  RH  030%=      5-min Rain = 0
KAM3 031818Z 15005KT 34/15 A301 RMK A01 T03440146  RH  030%=      5-min Rain = 0
KAM3 031819Z 11009KT 34/15 A301 RMK A01 T03440146  RH  031%=      5-min Rain = 0
KAM3 031820Z 10008KT 35/14 A301 RMK A01 T03460144  RH  030%=      5-min Rain = 0
KAM3 031821Z 12011G18KT 34/15 A301 RMK A01 T03440146  RH  031%=      5-min Rain = 0
KAM3 031822Z 14008KT 34/15 A301 RMK A01 T03440148  RH  031%=      5-min Rain = 0
KAM3 031823Z 14005KT 34/15 A301 RMK A01 T03440148  RH  031%=      5-min Rain = 0
KAM3 031824Z 12008G13KT 35/15 A3009 RMK A01 T03450150  RH  031%=      5-min Rain = 0
KAM3 031825Z 15012KT 35/14 A3009 RMK A01 T03500141  RH  029%=      5-min Rain = 0
KAM3 031826Z 16012KT 35/13 A3009 RMK A01 T03490133  RH  027%=      5-min Rain = 0
KAM3 031827Z 18010KT 35/13 A3009 RMK A01 T03480130  RH  027%=      5-min Rain = 0
KAM3 031828Z 21008KT 35/13 A3009 RMK A01 T03450132  RH  028%=      5-min Rain = 0
KAM3 031829Z 20005KT 34/14 A3009 RMK A01 T03440137  RH  029%=      5-min Rain = 0
KAM3 031830Z 13009KT 34/14 A3009 RMK A01 T03440141  RH  030%=      5-min Rain = 0
KAM3 031831Z 14005KT 34/15 A3009 RMK A01 T03440146  RH  031%=      5-min Rain = 0
KAM3 031832Z 14008KT 34/15 A3009 RMK A01 T03420147  RH  031%=      5-min Rain = 0
KAM3 031833Z 15007KT 34/14 A3009 RMK A01 T03420143  RH  030%=      5-min Rain = 0
KAM3 031834Z 19007KT 34/14 A3009 RMK A01 T03390141  RH  030%=      5-min Rain = 0
KAM3 031835Z 16007KT 34/14 A3009 RMK A01 T03350141  RH  031%=      5-min Rain = 0
KAM3 031836Z 14009KT 34/14 A3009 RMK A01 T03350143  RH  031%=      5-min Rain = 0
KAM3 031837Z 15008KT 34/15 A3009 RMK A01 T03360145  RH  032%=      5-min Rain = 0
KAM3 031838Z 14007G12KT 34/15 A3009 RMK A01 T03370146  RH  032%=      5-min Rain = 0
KAM3 031839Z 13006KT 34/15 A3009 RMK A01 T03370145  RH  031%=      5-min Rain = 0
KAM3 031840Z 13004KT 34/15 A3009 RMK A01 T03400146  RH  031%=      5-min Rain = 0
KAM3 031841Z 17003KT 34/15 A3009 RMK A01 T03420145  RH  031%=      5-min Rain = 0
KAM3 031842Z 15003KT 34/14 A3009 RMK A01 T03430144  RH  030%=      5-min Rain = 0
KAM3 031843Z 12007G12KT 34/14 A3009 RMK A01 T03420144  RH  030%=      5-min Rain = 0
KAM3 031844Z 11013KT 35/14 A3009 RMK A01 T03460141  RH  029%=      5-min Rain = 0
KAM3 031845Z 10011KT 35/14 A3009 RMK A01 T03460139  RH  029%=      5-min Rain = 0
KAM3 031846Z 12011KT 34/14 A3009 RMK A01 T03440138  RH  029%=      5-min Rain = 0
KAM3 031847Z 11009KT 35/14 A3009 RMK A01 T03470135  RH  028%=      5-min Rain = 0
KAM3 031848Z 11010KT 35/14 A3009 RMK A01 T03460136  RH  028%=      5-min Rain = 0
KAM3 031849Z 14011KT 35/14 A3009 RMK A01 T03460136  RH  028%=      5-min Rain = 0
KAM3 031850Z 15008G14KT 35/14 A3009 RMK A01 T03460136  RH  028%=      5-min Rain = 0
KAM3 031851Z 15011KT 35/14 A3009 RMK A01 T03470137  RH  028%=      5-min Rain = 0
KAM3 031852Z 14010KT 35/14 A3009 RMK A01 T03490137  RH  028%=      5-min Rain = 0
KAM3 031853Z 12007KT 35/13 A3009 RMK A01 T03510134  RH  027%=      5-min Rain = 0
KAM3 031854Z 10004KT 35/14 A3009 RMK A01 T03480135  RH  028%=      5-min Rain = 0
KAM3 031855Z 09006KT 35/14 A3009 RMK A01 T03460135  RH  028%=      5-min Rain = 0
KAM3 031856Z 09007KT 35/14 A3008 RMK A01 T03450137  RH  029%=      5-min Rain = 0
KAM3 031857Z 03003KT 35/14 A3008 RMK A01 T03450137  RH  029%=      5-min Rain = 0
KAM3 031858Z 10005KT 35/14 A3008 RMK A01 T03460138  RH  029%=      5-min Rain = 0
KAM3 031859Z 12007KT 35/14 A3008 RMK A01 T03490138  RH  028%=      5-min Rain = 0
KAM3 031900Z 12006KT 35/14 A3008 RMK A01 T03530136  RH  027%=      5-min Rain = 0
KAM3 031901Z 15007KT 35/14 A3008 RMK A01 T03520136  RH  027%=      5-min Rain = 0
KAM3 031902Z 21005KT 35/14 A3008 RMK A01 T03490137  RH  028%=      5-min Rain = 0
KAM3 031903Z 15003KT 35/14 A3008 RMK A01 T03460137  RH  028%=      5-min Rain = 0
KAM3 031904Z 11010KT 35/14 A3008 RMK A01 T03490138  RH  028%=      5-min Rain = 0
KAM3 031905Z 12011KT 35/14 A3008 RMK A01 T03530136  RH  027%=      5-min Rain = 0
KAM3 031906Z 14010KT 36/14 A3008 RMK A01 T03580138  RH  027%=      5-min Rain = 0
KAM3 031907Z 15012G17KT 36/14 A3008 RMK A01 T03590136  RH  026%=      5-min Rain = 0
KAM3 031908Z 16012KT 36/14 A3008 RMK A01 T03570135  RH  026%=      5-min Rain = 0
KAM3 031909Z 17010KT 36/14 A3008 RMK A01 T03570135  RH  026%=      5-min Rain = 0
KAM3 031910Z 16009KT 36/14 A3008 RMK A01 T03580135  RH  026%=      5-min Rain = 0
KAM3 031911Z 15006KT 36/13 A3008 RMK A01 T03570133  RH  026%=      5-min Rain = 0
KAM3 031912Z 16005KT 35/13 A3008 RMK A01 T03530134  RH  027%=      5-min Rain = 0
KAM3 031913Z 18006KT 35/14 A3008 RMK A01 T03520135  RH  027%=      5-min Rain = 0
KAM3 031914Z 15009G16KT 35/13 A3008 RMK A01 T03510134  RH  027%=      5-min Rain = 0
KAM3 031915Z 12013KT 36/14 A3008 RMK A01 T03550136  RH  027%=      5-min Rain = 0
KAM3 031916Z 11013KT 36/14 A3008 RMK A01 T03590135  RH  026%=      5-min Rain = 0
KAM3 031917Z 11014KT 36/13 A3008 RMK A01 T03600129  RH  025%=      5-min Rain = 0
KAM3 031918Z 10012KT 36/13 A3008 RMK A01 T03560130  RH  026%=      5-min Rain = 0
KAM3 031919Z 10013KT 36/12 A3008 RMK A01 T03560123  RH  025%=      5-min Rain = 0
KAM3 031920Z 09007KT 36/12 A3008 RMK A01 T03560118  RH  024%=      5-min Rain = 0
KAM3 031921Z 06004KT 35/12 A3008 RMK A01 T03540119  RH  024%=      5-min Rain = 0
KAM3 031922Z 13004G9KT 35/12 A3008 RMK A01 T03540123  RH  025%=      5-min Rain = 0
KAM3 031923Z 13010KT 36/13 A3008 RMK A01 T03580130  RH  025%=      5-min Rain = 0
KAM3 031924Z 15008KT 36/13 A3008 RMK A01 T03600133  RH  026%=      5-min Rain = 0
KAM3 031925Z 15009KT 36/13 A3007 RMK A01 T03620132  RH  025%=      5-min Rain = 0
KAM3 031926Z 13012KT 36/13 A3008 RMK A01 T03610130  RH  025%=      5-min Rain = 0
KAM3 031927Z 13012KT 36/13 A3008 RMK A01 T03570132  RH  026%=      5-min Rain = 0
KAM3 031928Z 14010KT 36/13 A3008 RMK A01 T03550131  RH  026%=      5-min Rain = 0
KAM3 031929Z 14007KT 35/13 A3008 RMK A01 T03510129  RH  026%=      5-min Rain = 0
KAM3 031930Z 11006KT 35/13 A3008 RMK A01 T03510125  RH  026%=      5-min Rain = 0
KAM3 031931Z 12005KT 35/13 A3007 RMK A01 T03500125  RH  026%=      5-min Rain = 0
KAM3 031932Z 11004KT 35/12 A3007 RMK A01 T03490123  RH  026%=      5-min Rain = 0
KAM3 031933Z 09004KT 35/12 A3007 RMK A01 T03490124  RH  026%=      5-min Rain = 0
KAM3 031934Z 07002KT 35/12 A3007 RMK A01 T03500122  RH  025%=      5-min Rain = 0
KAM3 031935Z 13003KT 35/12 A3007 RMK A01 T03520124  RH  025%=      5-min Rain = 0
KAM3 031936Z 17010KT 36/13 A3007 RMK A01 T03570132  RH  026%=      5-min Rain = 0
KAM3 031937Z 17009KT 36/13 A3007 RMK A01 T03620131  RH  025%=      5-min Rain = 0
KAM3 031938Z 18010KT 36/13 A3007 RMK A01 T03600131  RH  025%=      5-min Rain = 0
KAM3 031939Z 17007KT 36/13 A3007 RMK A01 T03570130  RH  025%=      5-min Rain = 0
KAM3 031940Z 12008KT 35/13 A3007 RMK A01 T03540130  RH  026%=      5-min Rain = 0
KAM3 031941Z 13007KT 35/13 A3007 RMK A01 T03530132  RH  027%=      5-min Rain = 0
KAM3 031942Z 13008G13KT 36/13 A3007 RMK A01 T03590130  RH  025%=      5-min Rain = 0
KAM3 031943Z 12010KT 36/13 A3007 RMK A01 T03630130  RH  025%=      5-min Rain = 0
KAM3 031944Z 13014KT 37/13 A3007 RMK A01 T03650130  RH  024%=      5-min Rain = 0
KAM3 031945Z 14008G14KT 37/13 A3007 RMK A01 T03650126  RH  024%=      5-min Rain = 0
KAM3 031946Z 15008KT 36/12 A3007 RMK A01 T03620124  RH  024%=      5-min Rain = 0
KAM3 031947Z 17006KT 36/12 A3007 RMK A01 T03600118  RH  023%=      5-min Rain = 0
KAM3 031948Z 14010KT 36/12 A3007 RMK A01 T03600124  RH  024%=      5-min Rain = 0
KAM3 031949Z 13011KT 36/12 A3007 RMK A01 T03600123  RH  024%=      5-min Rain = 0
KAM3 031950Z 11012KT 36/12 A3007 RMK A01 T03600124  RH  024%=      5-min Rain = 0
KAM3 031951Z 11008G13KT 36/12 A3007 RMK A01 T03620121  RH  023%=      5-min Rain = 0
KAM3 031952Z 09008KT 36/12 A3006 RMK A01 T03600119  RH  023%=      5-min Rain = 0
KAM3 031953Z 12007KT 36/12 A3006 RMK A01 T03570120  RH  024%=      5-min Rain = 0
KAM3 031954Z 14005KT 36/12 A3006 RMK A01 T03550122  RH  025%=      5-min Rain = 0
KAM3 031955Z 16011KT 36/13 A3006 RMK A01 T03570128  RH  025%=      5-min Rain = 0
KAM3 031956Z 17008KT 36/13 A3006 RMK A01 T03580129  RH  025%=      5-min Rain = 0
KAM3 031957Z 15005KT 36/13 A3006 RMK A01 T03580130  RH  026%=      5-min Rain = 0
KAM3 031958Z 14004KT 36/13 A3006 RMK A01 T03590126  RH  025%=      5-min Rain = 0
KAM3 031959Z 15007KT 36/13 A3006 RMK A01 T03590127  RH  025%=      5-min Rain = 0
KAM3 032000Z 16008KT 36/13 A3006 RMK A01 T03620126  RH  024%=      5-min Rain = 0
KAM3 032001Z 12006KT 36/12 A3006 RMK A01 T03620120  RH  023%=      5-min Rain = 0
KAM3 032002Z 14007KT 36/12 A3006 RMK A01 T03590119  RH  024%=      5-min Rain = 0
KAM3 032003Z 17009KT 36/11 A3006 RMK A01 T03600113  RH  023%=      5-min Rain = 0
KAM3 032004Z 17011KT 36/11 A3006 RMK A01 T03610113  RH  022%=      5-min Rain = 0
KAM3 032005Z 18008KT 36/11 A3006 RMK A01 T03590113  RH  023%=      5-min Rain = 0
KAM3 032006Z 19009KT 36/11 A3006 RMK A01 T03620114  RH  022%=      5-min Rain = 0
KAM3 032007Z 19008KT 36/11 A3006 RMK A01 T03590110  RH  022%=      5-min Rain = 0
KAM3 032008Z 18008KT 36/11 A3006 RMK A01 T03570110  RH  023%=      5-min Rain = 0
KAM3 032009Z 19005KT 36/11 A3006 RMK A01 T03560113  RH  023%=      5-min Rain = 0
KAM3 032010Z 16006KT 36/12 A3006 RMK A01 T03570116  RH  023%=      5-min Rain = 0
KAM3 032011Z 21004KT 36/11 A3006 RMK A01 T03590114  RH  023%=      5-min Rain = 0
KAM3 032012Z 23005KT 36/11 A3006 RMK A01 T03580113  RH  023%=      5-min Rain = 0
KAM3 032013Z 23003KT 36/11 A3006 RMK A01 T03570113  RH  023%=      5-min Rain = 0
KAM3 032014Z 25004KT 36/12 A3006 RMK A01 T03580116  RH  023%=      5-min Rain = 0
KAM3 032015Z 18006G11KT 36/12 A3006 RMK A01 T03590115  RH  023%=      5-min Rain = 0
KAM3 032016Z 16009KT 36/13 A3006 RMK A01 T03600127  RH  025%=      5-min Rain = 0
KAM3 032017Z 16010KT 36/13 A3006 RMK A01 T03600128  RH  025%=      5-min Rain = 0
KAM3 032018Z 15010KT 36/13 A3006 RMK A01 T03610130  RH  025%=      5-min Rain = 0
KAM3 032019Z 10009KT 37/13 A3006 RMK A01 T03650127  RH  024%=      5-min Rain = 0
KAM3 032020Z 11009KT 36/13 A3005 RMK A01 T03630125  RH  024%=      5-min Rain = 0
KAM3 032021Z 12011KT 36/13 A3005 RMK A01 T03600127  RH  025%=      5-min Rain = 0
KAM3 032022Z 12010KT 36/13 A3005 RMK A01 T03620126  RH  024%=      5-min Rain = 0
KAM3 032023Z 10010KT 36/13 A3005 RMK A01 T03620125  RH  024%=      5-min Rain = 0
KAM3 032024Z 10012KT 36/12 A3005 RMK A01 T03630123  RH  024%=      5-min Rain = 0
KAM3 032025Z 10007KT 36/13 A3005 RMK A01 T03630125  RH  024%=      5-min Rain = 0
KAM3 032026Z 11006KT 36/13 A3005 RMK A01 T03620126  RH  024%=      5-min Rain = 0
KAM3 032027Z 13005KT 36/13 A3005 RMK A01 T03610127  RH  025%=      5-min Rain = 0
KAM3 032028Z 16005KT 36/13 A3005 RMK A01 T03580127  RH  025%=      5-min Rain = 0
KAM3 032029Z 18006KT 36/13 A3005 RMK A01 T03600130  RH  025%=      5-min Rain = 0
KAM3 032030Z 20008KT 37/13 A3005 RMK A01 T03650129  RH  024%=      5-min Rain = 0
KAM3 032031Z 17008KT 37/13 A3005 RMK A01 T03670127  RH  024%=      5-min Rain = 0
KAM3 032032Z 18008KT 37/13 A3005 RMK A01 T03670125  RH  023%=      5-min Rain = 0
KAM3 032033Z 18005KT 36/13 A3005 RMK A01 T03630125  RH  024%=      5-min Rain = 0
KAM3 032034Z 13007KT 36/13 A3005 RMK A01 T03600127  RH  025%=      5-min Rain = 0
KAM3 032035Z 14008KT 36/13 A3005 RMK A01 T03580134  RH  026%=      5-min Rain = 0
KAM3 032036Z 16012KT 36/13 A3005 RMK A01 T03560129  RH  025%=      5-min Rain = 0
KAM3 032037Z 15010KT 36/13 A3005 RMK A01 T03550127  RH  025%=      5-min Rain = 0
KAM3 032038Z 15008KT 35/12 A3005 RMK A01 T03520122  RH  025%=      5-min Rain = 0
KAM3 032039Z 15008KT 35/12 A3005 RMK A01 T03490123  RH  026%=      5-min Rain = 0
KAM3 032040Z 17009KT 35/13 A3005 RMK A01 T03480125  RH  026%=      5-min Rain = 0
KAM3 032041Z 14004KT 35/13 A3005 RMK A01 T03480126  RH  026%=      5-min Rain = 0
KAM3 032042Z 10006G11KT 35/13 A3005 RMK A01 T03490128  RH  026%=      5-min Rain = 0
KAM3 032043Z 08011KT 35/13 A3005 RMK A01 T03530132  RH  026%=      5-min Rain = 0
KAM3 032044Z 08010KT 36/13 A3005 RMK A01 T03550132  RH  026%=      5-min Rain = 0
KAM3 032045Z 10010KT 36/13 A3005 RMK A01 T03570131  RH  026%=      5-min Rain = 0
KAM3 032046Z 10007KT 36/13 A3005 RMK A01 T03570130  RH  026%=      5-min Rain = 0
KAM3 032047Z 08009KT 36/13 A3005 RMK A01 T03560130  RH  026%=      5-min Rain = 0
KAM3 032048Z 08007KT 36/13 A3005 RMK A01 T03550130  RH  026%=      5-min Rain = 0
KAM3 032049Z 13008KT 36/13 A3005 RMK A01 T03570132  RH  026%=      5-min Rain = 0
KAM3 032050Z 13005KT 36/13 A3005 RMK A01 T03620129  RH  025%=      5-min Rain = 0
KAM3 032051Z 13007G13KT 36/13 A3005 RMK A01 T03620130  RH  025%=      5-min Rain = 0
KAM3 032052Z 15011KT 36/13 A3005 RMK A01 T03620132  RH  025%=      5-min Rain = 0
KAM3 032053Z 15009KT 36/13 A3005 RMK A01 T03630132  RH  025%=      5-min Rain = 0
KAM3 032054Z 16004KT 36/13 A3004 RMK A01 T03620132  RH  025%=      5-min Rain = 0
KAM3 032055Z 13006KT 36/13 A3004 RMK A01 T03580131  RH  026%=      5-min Rain = 0
KAM3 032056Z 13012KT 36/13 A3004 RMK A01 T03560133  RH  026%=      5-min Rain = 0
KAM3 032057Z 15014KT 36/14 A3004 RMK A01 T03560135  RH  027%=      5-min Rain = 0
KAM3 032058Z 16010KT 36/14 A3004 RMK A01 T03560135  RH  027%=      5-min Rain = 0
KAM3 032059Z 14011KT 36/14 A3004 RMK A01 T03570136  RH  027%=      5-min Rain = 0
KAM3 032100Z 12009KT 36/14 A3004 RMK A01 T03610135  RH  026%=      5-min Rain = 0
KAM3 032101Z 13008KT 36/13 A3004 RMK A01 T03610134  RH  026%=      5-min Rain = 0
KAM3 032102Z 12010KT 36/13 A3004 RMK A01 T03590134  RH  026%=      5-min Rain = 0
KAM3 032103Z 11006KT 36/13 A3004 RMK A01 T03570133  RH  026%=      5-min Rain = 0
KAM3 032104Z 10009KT 36/14 A3004 RMK A01 T03560135  RH  027%=      5-min Rain = 0
KAM3 032105Z 09007KT 36/13 A3004 RMK A01 T03570134  RH  026%=      5-min Rain = 0
KAM3 032106Z 09008KT 36/14 A3004 RMK A01 T03580135  RH  026%=      5-min Rain = 0
KAM3 032107Z 11009KT 36/14 A3004 RMK A01 T03610136  RH  026%=      5-min Rain = 0
KAM3 032108Z 14010KT 37/14 A3004 RMK A01 T03650136  RH  025%=      5-min Rain = 0
KAM3 032109Z 13010G15KT 36/13 A3004 RMK A01 T03640133  RH  025%=      5-min Rain = 0
KAM3 032110Z 14010KT 36/13 A3004 RMK A01 T03620134  RH  026%=      5-min Rain = 0
KAM3 032111Z 16009KT 36/13 A3004 RMK A01 T03640133  RH  025%=      5-min Rain = 0
KAM3 032112Z 14009KT 36/13 A3004 RMK A01 T03640133  RH  025%=      5-min Rain = 0
KAM3 032113Z 15008G13KT 36/13 A3004 RMK A01 T03640133  RH  025%=      5-min Rain = 0
KAM3 032114Z 14011KT 36/13 A3004 RMK A01 T03640132  RH  025%=      5-min Rain = 0
KAM3 032115Z 14007KT 36/13 A3004 RMK A01 T03640130  RH  025%=      5-min Rain = 0
KAM3 032116Z 13004KT 36/13 A3004 RMK A01 T03590130  RH  025%=      5-min Rain = 0
KAM3 032117Z 11008KT 36/13 A3004 RMK A01 T03580132  RH  026%=      5-min Rain = 0
KAM3 032118Z 11012KT 36/13 A3004 RMK A01 T03620131  RH  025%=      5-min Rain = 0
KAM3 032119Z 12007KT 36/13 A3004 RMK A01 T03630130  RH  025%=      5-min Rain = 0
KAM3 032120Z 12005KT 36/13 A3004 RMK A01 T03590130  RH  025%=      5-min Rain = 0
KAM3 032121Z 14006KT 36/13 A3004 RMK A01 T03600132  RH  026%=      5-min Rain = 0
KAM3 032122Z 12010KT 36/13 A3004 RMK A01 T03630130  RH  025%=      5-min Rain = 0
KAM3 032123Z 13011KT 36/13 A3004 RMK A01 T03630129  RH  025%=      5-min Rain = 0
KAM3 032124Z 13012KT 37/13 A3004 RMK A01 T03660129  RH  024%=      5-min Rain = 0
KAM3 032125Z 12011KT 37/13 A3004 RMK A01 T03660128  RH  024%=      5-min Rain = 0
KAM3 032126Z 13010KT 37/13 A3004 RMK A01 T03650128  RH  024%=      5-min Rain = 0
KAM3 032127Z 13009KT 36/13 A3004 RMK A01 T03630127  RH  024%=      5-min Rain = 0
KAM3 032128Z 15004KT 36/13 A3004 RMK A01 T03620131  RH  025%=      5-min Rain = 0
KAM3 032129Z 13009KT 36/13 A3004 RMK A01 T03620131  RH  025%=      5-min Rain = 0
KAM3 032130Z 11012KT 36/13 A3003 RMK A01 T03620134  RH  026%=      5-min Rain = 0
KAM3 032131Z 10012G17KT 37/14 A3004 RMK A01 T03660138  RH  026%=      5-min Rain = 0
KAM3 032132Z 11014KT 37/14 A3004 RMK A01 T03680136  RH  025%=      5-min Rain = 0
KAM3 032133Z 12011KT 36/13 A3004 RMK A01 T03620134  RH  025%=      5-min Rain = 0
KAM3 032134Z 13014KT 36/14 A3004 RMK A01 T03590135  RH  026%=      5-min Rain = 0
KAM3 032135Z 13012KT 36/14 A3004 RMK A01 T03570136  RH  026%=      5-min Rain = 0
KAM3 032136Z 14011G16KT 36/14 A3004 RMK A01 T03570136  RH  027%=      5-min Rain = 0
KAM3 032137Z 14007KT 36/14 A3003 RMK A01 T03550135  RH  027%=      5-min Rain = 0
KAM3 032138Z 13010G16KT 35/14 A3003 RMK A01 T03540136  RH  027%=      5-min Rain = 0
KAM3 032139Z 14013KT 36/13 A3003 RMK A01 T03550134  RH  027%=      5-min Rain = 0
KAM3 032140Z 14010G15KT 36/14 A3004 RMK A01 T03560135  RH  027%=      5-min Rain = 0
KAM3 032141Z 15012G17KT 36/13 A3003 RMK A01 T03580134  RH  026%=      5-min Rain = 0
KAM3 032142Z 15010KT 36/13 A3004 RMK A01 T03610134  RH  026%=      5-min Rain = 0
KAM3 032143Z 15012KT 36/13 A3004 RMK A01 T03610131  RH  025%=      5-min Rain = 0
KAM3 032144Z 13013KT 36/13 A3004 RMK A01 T03570129  RH  025%=      5-min Rain = 0
KAM3 032145Z 14009KT 35/13 A3004 RMK A01 T03540130  RH  026%=      5-min Rain = 0
KAM3 032146Z 14009KT 35/13 A3004 RMK A01 T03520129  RH  026%=      5-min Rain = 0
KAM3 032147Z 13009KT 35/13 A3004 RMK A01 T03510130  RH  026%=      5-min Rain = 0
KAM3 032148Z 11011KT 35/13 A3003 RMK A01 T03530132  RH  026%=      5-min Rain = 0
KAM3 032149Z 11010KT 35/13 A3003 RMK A01 T03540133  RH  026%=      5-min Rain = 0
KAM3 032150Z 12014KT 35/13 A3003 RMK A01 T03530133  RH  027%=      5-min Rain = 0
KAM3 032151Z 11014KT 35/13 A3003 RMK A01 T03540133  RH  026%=      5-min Rain = 0
KAM3 032152Z 12012KT 35/13 A3003 RMK A01 T03540133  RH  026%=      5-min Rain = 0
KAM3 032153Z 13011KT 36/13 A3003 RMK A01 T03550133  RH  027%=      5-min Rain = 0
KAM3 032154Z 12010KT 36/14 A3003 RMK A01 T03570135  RH  026%=      5-min Rain = 0
KAM3 032155Z 09010KT 36/13 A3003 RMK A01 T03600134  RH  026%=      5-min Rain = 0
KAM3 032156Z 11009KT 36/14 A3003 RMK A01 T03610135  RH  026%=      5-min Rain = 0
KAM3 032157Z 12013KT 36/14 A3003 RMK A01 T03630137  RH  026%=      5-min Rain = 0
KAM3 032158Z 14012KT 37/14 A3003 RMK A01 T03650135  RH  025%=      5-min Rain = 0
KAM3 032159Z 15009KT 36/13 A3003 RMK A01 T03620133  RH  025%=      5-min Rain = 0
KAM3 032200Z 11009KT 36/14 A3003 RMK A01 T03600135  RH  026%=      5-min Rain = 0
KAM3 032201Z 12008KT 36/13 A3003 RMK A01 T03580134  RH  026%=      5-min Rain = 0
KAM3 032202Z 11010KT 36/13 A3003 RMK A01 T03550134  RH  027%=      5-min Rain = 0
KAM3 032203Z 11012KT 36/14 A3003 RMK A01 T03560136  RH  027%=      5-min Rain = 0
KAM3 032204Z 13011KT 36/14 A3003 RMK A01 T03580137  RH  027%=      5-min Rain = 0
KAM3 032205Z 12014KT 36/13 A3003 RMK A01 T03620131  RH  025%=      5-min Rain = 0
KAM3 032206Z 12013KT 36/13 A3003 RMK A01 T03630131  RH  025%=      5-min Rain = 0
KAM3 032207Z 12012KT 36/13 A3003 RMK A01 T03630131  RH  025%=      5-min Rain = 0
KAM3 032208Z 12014KT 36/13 A3003 RMK A01 T03610132  RH  025%=      5-min Rain = 0
KAM3 032209Z 12014KT 36/13 A3003 RMK A01 T03610134  RH  026%=      5-min Rain = 0
KAM3 032210Z 12014KT 36/13 A3003 RMK A01 T03580132  RH  026%=      5-min Rain = 0
KAM3 032211Z 12014G19KT 35/13 A3003 RMK A01 T03540131  RH  026%=      5-min Rain = 0
KAM3 032212Z 11016KT 35/13 A3002 RMK A01 T03510129  RH  026%=      5-min Rain = 0
KAM3 032213Z 12017KT 35/13 A3002 RMK A01 T03490128  RH  026%=      5-min Rain = 0
KAM3 032214Z 13014KT 35/13 A3002 RMK A01 T03480128  RH  027%=      5-min Rain = 0
KAM3 032215Z 14011KT 35/13 A3002 RMK A01 T03480128  RH  027%=      5-min Rain = 0
KAM3 032216Z 14010KT 35/13 A3002 RMK A01 T03480128  RH  027%=      5-min Rain = 0
KAM3 032217Z 13010KT 35/13 A3002 RMK A01 T03490132  RH  027%=      5-min Rain = 0
KAM3 032218Z 11012G18KT 35/14 A3002 RMK A01 T03510137  RH  028%=      5-min Rain = 0
KAM3 032219Z 12018KT 35/14 A3002 RMK A01 T03530140  RH  028%=      5-min Rain = 0
KAM3 032220Z 11016KT 35/14 A3002 RMK A01 T03540140  RH  028%=      5-min Rain = 0
KAM3 032221Z 11010KT 36/14 A3002 RMK A01 T03550141  RH  028%=      5-min Rain = 0
KAM3 032222Z 09015G20KT 35/14 A3002 RMK A01 T03520141  RH  028%=      5-min Rain = 0
KAM3 032223Z 10017KT 35/14 A3002 RMK A01 T03510140  RH  028%=      5-min Rain = 0
KAM3 032224Z 11016KT 35/14 A3002 RMK A01 T03500140  RH  028%=      5-min Rain = 0
KAM3 032225Z 11011G17KT 35/14 A3002 RMK A01 T03490140  RH  029%=      5-min Rain = 0
KAM3 032226Z 12008KT 35/14 A3002 RMK A01 T03490141  RH  029%=      5-min Rain = 0
KAM3 032227Z 13011KT 35/14 A3002 RMK A01 T03510140  RH  028%=      5-min Rain = 0
KAM3 032228Z 15011KT 35/14 A3002 RMK A01 T03510135  RH  027%=      5-min Rain = 0
KAM3 032229Z 15011KT 35/13 A3002 RMK A01 T03500133  RH  027%=      5-min Rain = 0
KAM3 032230Z 14009KT 35/13 A3002 RMK A01 T03480133  RH  027%=      5-min Rain = 0
KAM3 032231Z 14011KT 35/13 A3002 RMK A01 T03470131  RH  027%=      5-min Rain = 0
KAM3 032232Z 12010KT 35/13 A3002 RMK A01 T03460132  RH  028%=      5-min Rain = 0
KAM3 032233Z 12011KT 35/14 A3002 RMK A01 T03450136  RH  028%=      5-min Rain = 0
KAM3 032234Z 12012KT 35/14 A3002 RMK A01 T03450139  RH  029%=      5-min Rain = 0
KAM3 032235Z 12012KT 35/14 A3002 RMK A01 T03450139  RH  029%=      5-min Rain = 0
KAM3 032236Z 12012KT 34/14 A3002 RMK A01 T03430140  RH  029%=      5-min Rain = 0
KAM3 032237Z 12009KT 34/14 A3002 RMK A01 T03420140  RH  030%=      5-min Rain = 0
KAM3 032238Z 13009KT 34/14 A3002 RMK A01 T03420141  RH  030%=      5-min Rain = 0
KAM3 032239Z 13009KT 34/14 A3002 RMK A01 T03430140  RH  030%=      5-min Rain = 0
KAM3 032240Z 11006KT 34/14 A3002 RMK A01 T03430139  RH  029%=      5-min Rain = 0
KAM3 032241Z 11007KT 34/14 A3002 RMK A01 T03430138  RH  029%=      5-min Rain = 0
KAM3 032242Z 11008KT 34/14 A3002 RMK A01 T03430138  RH  029%=      5-min Rain = 0
KAM3 032243Z 13012KT 34/14 A3002 RMK A01 T03430135  RH  029%=      5-min Rain = 0
KAM3 032244Z 14012KT 34/13 A3002 RMK A01 T03440129  RH  027%=      5-min Rain = 0
KAM3 032245Z 15013KT 35/13 A3002 RMK A01 T03450127  RH  027%=      5-min Rain = 0
KAM3 032246Z 16010KT 35/13 A3002 RMK A01 T03460128  RH  027%=      5-min Rain = 0
KAM3 032247Z 14009KT 35/13 A3002 RMK A01 T03490129  RH  027%=      5-min Rain = 0
KAM3 032248Z 13008KT 35/13 A3002 RMK A01 T03520131  RH  026%=      5-min Rain = 0
KAM3 032249Z 12008KT 36/14 A3002 RMK A01 T03550136  RH  027%=      5-min Rain = 0
KAM3 032250Z 11011KT 36/14 A3002 RMK A01 T03560139  RH  027%=      5-min Rain = 0
KAM3 032251Z 10013G18KT 36/14 A3002 RMK A01 T03550139  RH  028%=      5-min Rain = 0
KAM3 032252Z 12014G20KT 36/14 A3002 RMK A01 T03550138  RH  027%=      5-min Rain = 0
KAM3 032253Z 14015KT 36/14 A3002 RMK A01 T03560136  RH  027%=      5-min Rain = 0
KAM3 032254Z 15014KT 36/14 A3002 RMK A01 T03550136  RH  027%=      5-min Rain = 0
KAM3 032255Z 13011KT 36/14 A3002 RMK A01 T03550137  RH  027%=      5-min Rain = 0
KAM3 032256Z 13015KT 36/14 A3002 RMK A01 T03560136  RH  027%=      5-min Rain = 0
KAM3 032257Z 13014KT 36/14 A3002 RMK A01 T03570135  RH  026%=      5-min Rain = 0
KAM3 032258Z 13011KT 35/13 A3002 RMK A01 T03540133  RH  027%=      5-min Rain = 0
KAM3 032259Z 13010G15KT 35/13 A3002 RMK A01 T03520134  RH  027%=      5-min Rain = 0
KAM3 032300Z 13011KT 35/13 A3002 RMK A01 T03530134  RH  027%=      5-min Rain = 0
KAM3 032301Z 15011KT 35/13 A3001 RMK A01 T03540134  RH  027%=      5-min Rain = 0
KAM3 032302Z 15014G19KT 36/14 A3001 RMK A01 T03560135  RH  027%=      5-min Rain = 0
KAM3 032303Z 15013KT 36/13 A3001 RMK A01 T03560134  RH  026%=      5-min Rain = 0
KAM3 032304Z 14013KT 36/14 A3001 RMK A01 T03570136  RH  027%=      5-min Rain = 0
KAM3 032305Z 12015KT 36/14 A3001 RMK A01 T03580136  RH  026%=      5-min Rain = 0
KAM3 032306Z 13013KT 36/14 A3001 RMK A01 T03580135  RH  026%=      5-min Rain = 0
KAM3 032307Z 13010KT 36/14 A3001 RMK A01 T03570135  RH  026%=      5-min Rain = 0
KAM3 032308Z 14010KT 36/14 A3001 RMK A01 T03560136  RH  027%=      5-min Rain = 0
KAM3 032309Z 14010KT 36/14 A3001 RMK A01 T03550135  RH  027%=      5-min Rain = 0
KAM3 032310Z 14009KT 35/13 A3001 RMK A01 T03510134  RH  027%=      5-min Rain = 0
KAM3 032311Z 14013KT 35/13 A3001 RMK A01 T03480134  RH  028%=      5-min Rain = 0
KAM3 032312Z 14014KT 35/13 A3001 RMK A01 T03460134  RH  028%=      5-min Rain = 0
KAM3 032313Z 14015KT 35/13 A3001 RMK A01 T03450134  RH  028%=      5-min Rain = 0
KAM3 032314Z 15012KT 34/13 A3001 RMK A01 T03430134  RH  028%=      5-min Rain = 0
KAM3 032315Z 15013KT 34/13 A3001 RMK A01 T03420134  RH  028%=      5-min Rain = 0
KAM3 032316Z 16012KT 34/13 A3001 RMK A01 T03420134  RH  029%=      5-min Rain = 0
KAM3 032317Z 15008KT 34/13 A3001 RMK A01 T03410134  RH  029%=      5-min Rain = 0
KAM3 032318Z 14011KT 34/13 A3001 RMK A01 T03420134  RH  029%=      5-min Rain = 0
KAM3 032319Z 12012KT 34/13 A3001 RMK A01 T03420134  RH  028%=      5-min Rain = 0
KAM3 032320Z 11013KT 34/13 A3001 RMK A01 T03430133  RH  028%=      5-min Rain = 0
KAM3 032321Z 11009KT 34/13 A3001 RMK A01 T03430133  RH  028%=      5-min Rain = 0
KAM3 032322Z 13009KT 34/13 A3001 RMK A01 T03430133  RH  028%=      5-min Rain = 0
KAM3 032323Z 14008KT 34/13 A3001 RMK A01 T03430134  RH  028%=      5-min Rain = 0
KAM3 032324Z 15010KT 35/13 A3001 RMK A01 T03450133  RH  028%=      5-min Rain = 0
KAM3 032325Z 14009KT 35/13 A3001 RMK A01 T03470132  RH  027%=      5-min Rain = 0
KAM3 032326Z 14014KT 35/13 A3001 RMK A01 T03470131  RH  027%=      5-min Rain = 0
KAM3 032327Z 14014KT 35/13 A3001 RMK A01 T03480131  RH  027%=      5-min Rain = 0
KAM3 032328Z 15012KT 35/13 A3001 RMK A01 T03470130  RH  027%=      5-min Rain = 0
KAM3 032329Z 14010KT 35/13 A3001 RMK A01 T03460130  RH  027%=      5-min Rain = 0
KAM3 032330Z 13015KT 35/13 A3001 RMK A01 T03460133  RH  028%=      5-min Rain = 0
KAM3 032331Z 13012KT 35/13 A3001 RMK A01 T03470134  RH  028%=      5-min Rain = 0
KAM3 032332Z 13011KT 35/14 A3001 RMK A01 T03470137  RH  028%=      5-min Rain = 0
KAM3 032333Z 13012KT 35/14 A3001 RMK A01 T03460137  RH  028%=      5-min Rain = 0
KAM3 032334Z 13013G18KT 35/14 A3001 RMK A01 T03460138  RH  029%=      5-min Rain = 0
KAM3 032335Z 13015KT 35/14 A3001 RMK A01 T03460138  RH  029%=      5-min Rain = 0
KAM3 032336Z 12014KT 35/14 A3001 RMK A01 T03450139  RH  029%=      5-min Rain = 0
KAM3 032337Z 11014G20KT 34/14 A3001 RMK A01 T03440139  RH  029%=      5-min Rain = 0
KAM3 032338Z 12017KT 34/14 A3001 RMK A01 T03440138  RH  029%=      5-min Rain = 0
KAM3 032339Z 13015KT 34/14 A3001 RMK A01 T03440138  RH  029%=      5-min Rain = 0
KAM3 032340Z 12015KT 34/14 A3001 RMK A01 T03440138  RH  029%=      5-min Rain = 0
KAM3 032341Z 12016KT 34/14 A3001 RMK A01 T03440138  RH  029%=      5-min Rain = 0
KAM3 032342Z 12015KT 34/14 A3001 RMK A01 T03430137  RH  029%=      5-min Rain = 0
KAM3 032343Z 12017KT 34/14 A3001 RMK A01 T03420137  RH  029%=      5-min Rain = 0
KAM3 032344Z 12016KT 34/14 A3001 RMK A01 T03420137  RH  029%=      5-min Rain = 0
KAM3 032345Z 13011KT 34/14 A3001 RMK A01 T03420138  RH  029%=      5-min Rain = 0
KAM3 032346Z 13010KT 34/14 A3001 RMK A01 T03420137  RH  029%=      5-min Rain = 0
KAM3 032347Z 13011KT 34/14 A3001 RMK A01 T03420138  RH  029%=      5-min Rain = 0
KAM3 032348Z 12014KT 34/14 A3001 RMK A01 T03420137  RH  029%=      5-min Rain = 0
KAM3 032349Z 12013KT 34/14 A3001 RMK A01 T03420136  RH  029%=      5-min Rain = 0
KAM3 032350Z 13012KT 34/14 A3001 RMK A01 T03420136  RH  029%=      5-min Rain = 0
KAM3 032351Z 13015KT 34/14 A3001 RMK A01 T03420135  RH  029%=      5-min Rain = 0
KAM3 032352Z 13015KT 34/14 A3001 RMK A01 T03420135  RH  029%=      5-min Rain = 0
KAM3 032353Z 12015KT 34/14 A3001 RMK A01 T03420135  RH  029%=      5-min Rain = 0
KAM3 032354Z 12015KT 34/13 A3001 RMK A01 T03420134  RH  029%=      5-min Rain = 0
KAM3 032355Z 12015KT 34/13 A3001 RMK A01 T03420134  RH  029%=      5-min Rain = 0
KAM3 032356Z 12016KT 34/14 A3001 RMK A01 T03420135  RH  029%=      5-min Rain = 0
KAM3 032357Z 11012G17KT 34/14 A3001 RMK A01 T03420136  RH  029%=      5-min Rain = 0
KAM3 032358Z 11015KT 34/14 A3001 RMK A01 T03420140  RH  030%=      5-min Rain = 0
KAM3 032359Z 10012KT 34/14 A3002 RMK A01 T03410141  RH  030%=      5-min Rain = 0
KAM3 040000Z 11014KT 34/14 A3002 RMK A01 T03410141  RH  030%=      5-min Rain = 0
KAM3 040001Z 12015KT 34/14 A3002 RMK A01 T03410137  RH  029%=      5-min Rain = 0
KAM3 040002Z 11016KT 34/14 A3002 RMK A01 T03410137  RH  029%=      5-min Rain = 0
KAM3 040003Z 11016KT 34/14 A3002 RMK A01 T03410137  RH  029%=      5-min Rain = 0
KAM3 040004Z 12017KT 34/14 A3002 RMK A01 T03410136  RH  029%=      5-min Rain = 0
KAM3 040005Z 13014KT 34/14 A3002 RMK A01 T03410137  RH  029%=      5-min Rain = 0
KAM3 040006Z 12014KT 34/14 A3002 RMK A01 T03410137  RH  029%=      5-min Rain = 0
KAM3 040007Z 12016KT 34/14 A3002 RMK A01 T03420139  RH  029%=      5-min Rain = 0
KAM3 040008Z 12016KT 34/14 A3002 RMK A01 T03410139  RH  030%=      5-min Rain = 0
KAM3 040009Z 13015G20KT 34/14 A3002 RMK A01 T03400140  RH  030%=      5-min Rain = 0
KAM3 040010Z 12014KT 34/14 A3002 RMK A01 T03400140  RH  030%=      5-min Rain = 0
KAM3 040011Z 12016KT 34/14 A3002 RMK A01 T03400141  RH  030%=      5-min Rain = 0
KAM3 040012Z 13014KT 34/14 A3002 RMK A01 T03400141  RH  030%=      5-min Rain = 0
KAM3 040013Z 13014G20KT 34/14 A3002 RMK A01 T03400142  RH  030%=      5-min Rain = 0
KAM3 040014Z 13014KT 34/14 A3002 RMK A01 T03400143  RH  030%=      5-min Rain = 0
KAM3 040015Z 13012KT 34/14 A3002 RMK A01 T03400144  RH  031%=      5-min Rain = 0
KAM3 040016Z 12015KT 34/14 A3002 RMK A01 T03390144  RH  031%=      5-min Rain = 0
KAM3 040017Z 12015KT 34/14 A3002 RMK A01 T03390144  RH  031%=      5-min Rain = 0
KAM3 040018Z 13014KT 34/14 A3002 RMK A01 T03380144  RH  031%=      5-min Rain = 0
KAM3 040019Z 13014KT 34/14 A3002 RMK A01 T03370144  RH  031%=      5-min Rain = 0
KAM3 040020Z 14013KT 34/14 A3002 RMK A01 T03370142  RH  031%=      5-min Rain = 0
KAM3 040021Z 14014KT 34/14 A3002 RMK A01 T03360142  RH  031%=      5-min Rain = 0
KAM3 040022Z 13013KT 34/14 A3002 RMK A01 T03360143  RH  031%=      5-min Rain = 0
KAM3 040023Z 12016KT 34/15 A3002 RMK A01 T03350145  RH  032%=      5-min Rain = 0
KAM3 040024Z 12015KT 34/15 A3003 RMK A01 T03350145  RH  032%=      5-min Rain = 0
KAM3 040025Z 12016KT 34/15 A3003 RMK A01 T03350145  RH  032%=      5-min Rain = 0
KAM3 040026Z 11017KT 33/15 A3003 RMK A01 T03340145  RH  032%=      5-min Rain = 0
KAM3 040027Z 12017KT 33/14 A3003 RMK A01 T03340143  RH  032%=      5-min Rain = 0
KAM3 040028Z 14015G21KT 33/14 A3003 RMK A01 T03340142  RH  031%=      5-min Rain = 0
KAM3 040029Z 13011KT 33/14 A3003 RMK A01 T03340142  RH  031%=      5-min Rain = 0
KAM3 040030Z 13010KT 33/14 A3003 RMK A01 T03340143  RH  032%=      5-min Rain = 0
KAM3 040031Z 13010KT 33/14 A3003 RMK A01 T03340143  RH  032%=      5-min Rain = 0
KAM3 040032Z 13010KT 33/14 A3003 RMK A01 T03340143  RH  032%=      5-min Rain = 0
KAM3 040033Z 13013KT 33/14 A3003 RMK A01 T03330143  RH  032%=      5-min Rain = 0
KAM3 040034Z 13014KT 33/14 A3003 RMK A01 T03330142  RH  032%=      5-min Rain = 0
KAM3 040035Z 13016KT 33/14 A3003 RMK A01 T03330141  RH  031%=      5-min Rain = 0
KAM3 040036Z 13015KT 33/14 A3003 RMK A01 T03330140  RH  031%=      5-min Rain = 0
KAM3 040037Z 12015KT 33/14 A3003 RMK A01 T03320140  RH  031%=      5-min Rain = 0
KAM3 040038Z 13014KT 33/14 A3003 RMK A01 T03320139  RH  031%=      5-min Rain = 0
KAM3 040039Z 14012G17KT 33/14 A3003 RMK A01 T03320139  RH  031%=      5-min Rain = 0
KAM3 040040Z 14010KT 33/14 A3003 RMK A01 T03320139  RH  031%=      5-min Rain = 0
KAM3 040041Z 14010G16KT 33/14 A3003 RMK A01 T03320138  RH  031%=      5-min Rain = 0
KAM3 040042Z 14012KT 33/14 A3003 RMK A01 T03310136  RH  031%=      5-min Rain = 0
KAM3 040043Z 14015KT 33/13 A3003 RMK A01 T03310133  RH  030%=      5-min Rain = 0
KAM3 040044Z 14012KT 33/13 A3003 RMK A01 T03310132  RH  030%=      5-min Rain = 0
KAM3 040045Z 14014KT 33/13 A3003 RMK A01 T03310132  RH  030%=      5-min Rain = 0
KAM3 040046Z 14013KT 33/13 A3003 RMK A01 T03310132  RH  030%=      5-min Rain = 0
KAM3 040047Z 15013KT 33/13 A3003 RMK A01 T03310132  RH  030%=      5-min Rain = 0
KAM3 040048Z 15014KT 33/13 A3003 RMK A01 T03310131  RH  030%=      5-min Rain = 0
KAM3 040049Z 15013KT 33/13 A3003 RMK A01 T03310130  RH  030%=      5-min Rain = 0
KAM3 040050Z 15011KT 33/13 A3003 RMK A01 T03310130  RH  030%=      5-min Rain = 0
KAM3 040051Z 15011KT 33/13 A3003 RMK A01 T03300130  RH  030%=      5-min Rain = 0
KAM3 040052Z 15012KT 33/13 A3003 RMK A01 T03300129  RH  030%=      5-min Rain = 0
KAM3 040053Z 15010KT 33/13 A3003 RMK A01 T03300129  RH  029%=      5-min Rain = 0
KAM3 040054Z 15012KT 33/13 A3003 RMK A01 T03300128  RH  029%=      5-min Rain = 0
KAM3 040055Z 15011KT 33/13 A3003 RMK A01 T03300128  RH  029%=      5-min Rain = 0
KAM3 040056Z 15011KT 33/13 A3003 RMK A01 T03300128  RH  029%=      5-min Rain = 0
KAM3 040057Z 14011KT 33/13 A3003 RMK A01 T03300128  RH  029%=      5-min Rain = 0
KAM3 040058Z 15010KT 33/13 A3003 RMK A01 T03290127  RH  029%=      5-min Rain = 0
KAM3 040059Z 15012G17KT 33/13 A3004 RMK A01 T03290128  RH  029%=      5-min Rain = 0
KAM3 040100Z 15010KT 33/13 A3004 RMK A01 T03290128  RH  029%=      5-min Rain = 0
KAM3 040101Z 13012KT 33/13 A3004 RMK A01 T03290129  RH  030%=      5-min Rain = 0
KAM3 040102Z 14008KT 33/13 A3004 RMK A01 T03290129  RH  030%=      5-min Rain = 0
KAM3 040103Z 14009KT 33/13 A3004 RMK A01 T03280130  RH  030%=      5-min Rain = 0
KAM3 040104Z 13011KT 33/13 A3004 RMK A01 T03280130  RH  030%=      5-min Rain = 0
KAM3 040105Z 14010KT 33/13 A3004 RMK A01 T03280129  RH  030%=      5-min Rain = 0
KAM3 040106Z 14012KT 33/13 A3004 RMK A01 T03270129  RH  030%=      5-min Rain = 0
KAM3 040107Z 14011KT 33/13 A3004 RMK A01 T03270128  RH  030%=      5-min Rain = 0
KAM3 040108Z 14011KT 33/13 A3004 RMK A01 T03270128  RH  030%=      5-min Rain = 0
KAM3 040109Z 13010KT 33/13 A3004 RMK A01 T03270128  RH  030%=      5-min Rain = 0
KAM3 040110Z 14008KT 33/13 A3004 RMK A01 T03270128  RH  030%=      5-min Rain = 0
KAM3 040111Z 14009KT 33/13 A3004 RMK A01 T03270128  RH  030%=      5-min Rain = 0
KAM3 040112Z 14009KT 33/13 A3004 RMK A01 T03260128  RH  030%=      5-min Rain = 0
KAM3 040113Z 14007KT 33/13 A3004 RMK A01 T03260128  RH  030%=      5-min Rain = 0
KAM3 040114Z 14009KT 33/13 A3004 RMK A01 T03260128  RH  030%=      5-min Rain = 0
KAM3 040115Z 14008KT 33/13 A3004 RMK A01 T03260128  RH  030%=      5-min Rain = 0
KAM3 040116Z 14009KT 33/13 A3004 RMK A01 T03250128  RH  030%=      5-min Rain = 0
KAM3 040117Z 14010KT 33/13 A3004 RMK A01 T03250128  RH  030%=      5-min Rain = 0
KAM3 040118Z 14009KT 33/13 A3004 RMK A01 T03250128  RH  030%=      5-min Rain = 0
KAM3 040119Z 14009KT 33/13 A3004 RMK A01 T03250128  RH  030%=      5-min Rain = 0
KAM3 040120Z 14011KT 33/13 A3004 RMK A01 T03250128  RH  030%=      5-min Rain = 0
KAM3 040121Z 14010KT 33/13 A3004 RMK A01 T03250128  RH  030%=      5-min Rain = 0
KAM3 040122Z 14009KT 33/13 A3004 RMK A01 T03250128  RH  030%=      5-min Rain = 0
KAM3 040123Z 14007KT 33/13 A3004 RMK A01 T03250128  RH  030%=      5-min Rain = 0
KAM3 040124Z 14009KT 32/13 A3004 RMK A01 T03240128  RH  030%=      5-min Rain = 0
KAM3 040125Z 14010KT 32/13 A3004 RMK A01 T03230128  RH  031%=      5-min Rain = 0
KAM3 040126Z 14009KT 32/13 A3004 RMK A01 T03230128  RH  031%=      5-min Rain = 0
KAM3 040127Z 14008KT 32/13 A3004 RMK A01 T03230128  RH  031%=      5-min Rain = 0
KAM3 040128Z 15009KT 32/13 A3004 RMK A01 T03230128  RH  031%=      5-min Rain = 0
KAM3 040129Z 14008KT 32/13 A3004 RMK A01 T03220128  RH  031%=      5-min Rain = 0
KAM3 040130Z 15009KT 32/13 A3004 RMK A01 T03220128  RH  031%=      5-min Rain = 0
KAM3 040131Z 14008KT 32/13 A3004 RMK A01 T03220128  RH  031%=      5-min Rain = 0
KAM3 040132Z 14008KT 32/13 A3004 RMK A01 T03210128  RH  031%=      5-min Rain = 0
KAM3 040133Z 14007KT 32/13 A3004 RMK A01 T03210128  RH  031%=      5-min Rain = 0
KAM3 040134Z 14007KT 32/13 A3004 RMK A01 T03200129  RH  031%=      5-min Rain = 0
KAM3 040135Z 15007KT 32/13 A3004 RMK A01 T03200129  RH  031%=      5-min Rain = 0
KAM3 040136Z 14007KT 32/13 A3004 RMK A01 T03190129  RH  031%=      5-min Rain = 0
KAM3 040137Z 14007KT 32/13 A3004 RMK A01 T03180129  RH  032%=      5-min Rain = 0
KAM3 040138Z 14007KT 32/13 A3004 RMK A01 T03180129  RH  032%=      5-min Rain = 0
KAM3 040139Z 14007KT 32/13 A3004 RMK A01 T03170129  RH  032%=      5-min Rain = 0
KAM3 040140Z 14007KT 32/13 A3004 RMK A01 T03170129  RH  032%=      5-min Rain = 0
KAM3 040141Z 14006KT 32/13 A3004 RMK A01 T03160129  RH  032%=      5-min Rain = 0
KAM3 040142Z 14006KT 32/13 A3004 RMK A01 T03160129  RH  032%=      5-min Rain = 0
KAM3 040143Z 14006KT 32/13 A3004 RMK A01 T03150129  RH  032%=      5-min Rain = 0
KAM3 040144Z 15006KT 32/13 A3004 RMK A01 T03150129  RH  032%=      5-min Rain = 0
KAM3 040145Z 14006KT 31/13 A3004 RMK A01 T03140129  RH  032%=      5-min Rain = 0
KAM3 040146Z 14005KT 31/13 A3004 RMK A01 T03140129  RH  032%=      5-min Rain = 0
KAM3 040147Z 14006KT 31/13 A3004 RMK A01 T03130129  RH  033%=      5-min Rain = 0
KAM3 040148Z 15006KT 31/13 A3004 RMK A01 T03130129  RH  033%=      5-min Rain = 0
KAM3 040149Z 14005KT 31/13 A3004 RMK A01 T03130129  RH  033%=      5-min Rain = 0
KAM3 040150Z 14006KT 31/13 A3004 RMK A01 T03120129  RH  033%=      5-min Rain = 0
KAM3 040151Z 14005KT 31/13 A3005 RMK A01 T03120129  RH  033%=      5-min Rain = 0
KAM3 040152Z 14005KT 31/13 A3005 RMK A01 T03120130  RH  033%=      5-min Rain = 0
KAM3 040153Z 14005KT 31/13 A3005 RMK A01 T03100129  RH  033%=      5-min Rain = 0
KAM3 040154Z 14005KT 31/13 A3005 RMK A01 T03100129  RH  033%=      5-min Rain = 0
KAM3 040155Z 14005KT 31/13 A3005 RMK A01 T03100130  RH  033%=      5-min Rain = 0
KAM3 040156Z 14006KT 31/13 A3005 RMK A01 T03090129  RH  033%=      5-min Rain = 0
KAM3 040157Z 14006KT 31/13 A3005 RMK A01 T03080129  RH  034%=      5-min Rain = 0
KAM3 040158Z 14006KT 31/13 A3005 RMK A01 T03070129  RH  034%=      5-min Rain = 0
KAM3 040159Z 15005KT 31/13 A3005 RMK A01 T03070129  RH  034%=      5-min Rain = 0
KAM3 040200Z 14006KT 31/13 A3005 RMK A01 T03060129  RH  034%=      5-min Rain = 0
KAM3 040201Z 14006KT 31/13 A3005 RMK A01 T03060130  RH  034%=      5-min Rain = 0
KAM3 040202Z 14006KT 31/13 A3005 RMK A01 T03050129  RH  034%=      5-min Rain = 0
KAM3 040203Z 14006KT 30/13 A3005 RMK A01 T03040129  RH  034%=      5-min Rain = 0
KAM3 040204Z 15006KT 30/13 A3005 RMK A01 T03040130  RH  034%=      5-min Rain = 0
KAM3 040205Z 15006KT 30/13 A3005 RMK A01 T03040130  RH  034%=      5-min Rain = 0
KAM3 040206Z 15006KT 30/13 A3005 RMK A01 T03030129  RH  035%=      5-min Rain = 0
KAM3 040207Z 15006KT 30/13 A3005 RMK A01 T03020129  RH  035%=      5-min Rain = 0
KAM3 040208Z 15006KT 30/13 A3005 RMK A01 T03010129  RH  035%=      5-min Rain = 0
KAM3 040209Z 15006KT 30/13 A3005 RMK A01 T03010129  RH  035%=      5-min Rain = 0
KAM3 040210Z 15006KT 30/13 A3005 RMK A01 T03000129  RH  035%=      5-min Rain = 0
KAM3 040211Z 15006KT 30/13 A3005 RMK A01 T03000129  RH  035%=      5-min Rain = 0
KAM3 040212Z 15006KT 30/13 A3005 RMK A01 T02990129  RH  035%=      5-min Rain = 0
KAM3 040213Z 15006KT 30/13 A3005 RMK A01 T02980129  RH  035%=      5-min Rain = 0
KAM3 040214Z 15006KT 30/13 A3005 RMK A01 T02980129  RH  036%=      5-min Rain = 0
KAM3 040215Z 14006KT 30/13 A3005 RMK A01 T02970129  RH  036%=      5-min Rain = 0
KAM3 040216Z 14005KT 30/13 A3005 RMK A01 T02970129  RH  036%=      5-min Rain = 0
KAM3 040217Z 14006KT 30/13 A3005 RMK A01 T02970129  RH  036%=      5-min Rain = 0
KAM3 040218Z 14005KT 30/13 A3005 RMK A01 T02960129  RH  036%=      5-min Rain = 0
KAM3 040219Z 14006KT 30/13 A3006 RMK A01 T02960129  RH  036%=      5-min Rain = 0
KAM3 040220Z 14005KT 30/13 A3006 RMK A01 T02960129  RH  036%=      5-min Rain = 0
KAM3 040221Z 14005KT 30/13 A3006 RMK A01 T02960130  RH  036%=      5-min Rain = 0
KAM3 040222Z 14006KT 30/13 A3006 RMK A01 T02950129  RH  036%=      5-min Rain = 0
KAM3 040223Z 14006KT 30/13 A3006 RMK A01 T02950129  RH  036%=      5-min Rain = 0
KAM3 040224Z 14006KT 30/13 A3006 RMK A01 T02950129  RH  036%=      5-min Rain = 0
KAM3 040225Z 14006KT 30/13 A3006 RMK A01 T02950129  RH  036%=      5-min Rain = 0
KAM3 040226Z 14006KT 30/13 A3006 RMK A01 T02950129  RH  036%=      5-min Rain = 0
KAM3 040227Z 14005KT 30/13 A3006 RMK A01 T02950129  RH  036%=      5-min Rain = 0
KAM3 040228Z 14005KT 30/13 A3006 RMK A01 T02960130  RH  036%=      5-min Rain = 0
KAM3 040229Z 15005KT 30/13 A3006 RMK A01 T02960130  RH  036%=      5-min Rain = 0
KAM3 040230Z 16003KT 30/13 A3007 RMK A01 T02960130  RH  036%=      5-min Rain = 0
KAM3 040231Z 24003KT 30/13 A3007 RMK A01 T02960130  RH  036%=      5-min Rain = 0
KAM3 040232Z 29013KT 30/13 A3008 RMK A01 T02960130  RH  036%=      5-min Rain = 0
KAM3 040233Z 29011KT 29/14 A3009 RMK A01 T02890138  RH  040%=      5-min Rain = 0
KAM3 040234Z 32017G22KT 28/14 A3009 RMK A01 T02800144  RH  043%=      5-min Rain = 0
KAM3 040235Z 33019G24KT 27/15 A3008 RMK A01 T02730145  RH  046%=      5-min Rain = 0
KAM3 040236Z 32018KT 27/15 A3008 RMK A01 T02680146  RH  047%=      5-min Rain = 0
KAM3 040237Z 32018KT 27/15 A3008 RMK A01 T02650147  RH  048%=      5-min Rain = 0
KAM3 040238Z 31021KT 26/15 A3008 RMK A01 T02630148  RH  049%=      5-min Rain = 0
KAM3 040239Z 31023KT 26/15 A3009 RMK A01 T02600151  RH  051%=      5-min Rain = 0
KAM3 040240Z 32022KT 26/15 A3009 RMK A01 T02580151  RH  052%=      5-min Rain = 0
KAM3 040241Z 32022KT 26/15 A3009 RMK A01 T02560152  RH  053%=      5-min Rain = 0
KAM3 040242Z 31020KT 25/15 A301 RMK A01 T02540152  RH  053%=      5-min Rain = 0
KAM3 040243Z 33019KT 25/15 A301 RMK A01 T02530153  RH  054%=      5-min Rain = 0
KAM3 040244Z 33018KT 25/15 A301 RMK A01 T02510153  RH  055%=      5-min Rain = 0
KAM3 040245Z 33015KT 25/15 A3011 RMK A01 T02500154  RH  055%=      5-min Rain = 0
KAM3 040246Z 31012KT 25/15 A3011 RMK A01 T02490154  RH  056%=      5-min Rain = 0
KAM3 040247Z 30013KT 25/15 A3011 RMK A01 T02480154  RH  056%=      5-min Rain = 0
KAM3 040248Z 30013KT 25/15 A3011 RMK A01 T02470154  RH  056%=      5-min Rain = 0
KAM3 040249Z 30013KT 25/15 A3011 RMK A01 T02470154  RH  056%=      5-min Rain = 0
KAM3 040250Z 30013KT 25/15 A3011 RMK A01 T02470154  RH  056%=      5-min Rain = 0
KAM3 040251Z 30012KT 25/15 A3011 RMK A01 T02470153  RH  056%=      5-min Rain = 0
KAM3 040252Z 30011KT 25/15 A3011 RMK A01 T02470153  RH  056%=      5-min Rain = 0
KAM3 040253Z 30011KT 25/15 A3011 RMK A01 T02460153  RH  056%=      5-min Rain = 0
KAM3 040254Z 30015KT 25/15 A3011 RMK A01 T02460152  RH  056%=      5-min Rain = 0
KAM3 040255Z 31015KT 24/15 A3011 RMK A01 T02440151  RH  056%=      5-min Rain = 0
KAM3 040256Z 30015KT 24/15 A3011 RMK A01 T02440151  RH  056%=      5-min Rain = 0
KAM3 040257Z 30014KT 24/15 A3011 RMK A01 T02430151  RH  057%=      5-min Rain = 0
KAM3 040258Z 30014KT 24/15 A3011 RMK A01 T02420151  RH  057%=      5-min Rain = 0
KAM3 040259Z 30011KT 24/15 A3011 RMK A01 T02420151  RH  057%=      5-min Rain = 0
KAM3 040300Z 30011KT 24/15 A3011 RMK A01 T02410151  RH  057%=      5-min Rain = 0
KAM3 040301Z 31012KT 24/15 A3011 RMK A01 T02410151  RH  057%=      5-min Rain = 0
KAM3 040302Z 31014KT 24/15 A3011 RMK A01 T02410151  RH  057%=      5-min Rain = 0
KAM3 040303Z 30012KT 24/15 A3011 RMK A01 T02410151  RH  057%=      5-min Rain = 0
KAM3 040304Z 30014KT 24/15 A3011 RMK A01 T02410150  RH  057%=      5-min Rain = 0
KAM3 040305Z 30012KT 24/15 A3011 RMK A01 T02410150  RH  057%=      5-min Rain = 0
KAM3 040306Z 30011KT 24/15 A3011 RMK A01 T02400149  RH  057%=      5-min Rain = 0
KAM3 040307Z 30012KT 24/15 A3011 RMK A01 T02410150  RH  057%=      5-min Rain = 0
KAM3 040308Z 30011KT 24/15 A3011 RMK A01 T02400149  RH  057%=      5-min Rain = 0
KAM3 040309Z 30010KT 24/15 A3011 RMK A01 T02410149  RH  056%=      5-min Rain = 0
KAM3 040310Z 30011KT 24/15 A3011 RMK A01 T02400148  RH  056%=      5-min Rain = 0
KAM3 040311Z 31011KT 24/15 A3011 RMK A01 T02400148  RH  056%=      5-min Rain = 0
KAM3 040312Z 31012KT 24/15 A3011 RMK A01 T02400148  RH  056%=      5-min Rain = 0
KAM3 040313Z 31012KT 24/15 A3011 RMK A01 T02410148  RH  056%=      5-min Rain = 0
KAM3 040314Z 31012KT 24/15 A3011 RMK A01 T02400147  RH  056%=      5-min Rain = 0
KAM3 040315Z 31010KT 24/15 A3011 RMK A01 T02410146  RH  056%=      5-min Rain = 0
KAM3 040316Z 30010KT 24/15 A3011 RMK A01 T02410146  RH  055%=      5-min Rain = 0
KAM3 040317Z 30009KT 24/15 A3011 RMK A01 T02400146  RH  055%=      5-min Rain = 0
KAM3 040318Z 30010KT 24/15 A3011 RMK A01 T02400145  RH  055%=      5-min Rain = 0
KAM3 040319Z 30010KT 24/15 A3011 RMK A01 T02400145  RH  055%=      5-min Rain = 0
KAM3 040320Z 30007KT 24/15 A3011 RMK A01 T02400145  RH  055%=      5-min Rain = 0
KAM3 040321Z 31007KT 24/15 A3012 RMK A01 T02400145  RH  055%=      5-min Rain = 0
KAM3 040322Z 31008KT 24/15 A3012 RMK A01 T02400145  RH  055%=      5-min Rain = 0
KAM3 040323Z 31009KT 24/15 A3012 RMK A01 T02410145  RH  055%=      5-min Rain = 0
KAM3 040324Z 31009KT 24/14 A3012 RMK A01 T02400144  RH  055%=      5-min Rain = 0
KAM3 040325Z 31008KT 24/14 A3012 RMK A01 T02410144  RH  055%=      5-min Rain = 0
KAM3 040326Z 30007KT 24/14 A3012 RMK A01 T02410144  RH  055%=      5-min Rain = 0
KAM3 040327Z 30008KT 24/14 A3012 RMK A01 T02410144  RH  055%=      5-min Rain = 0
KAM3 040328Z 31007KT 24/14 A3012 RMK A01 T02410143  RH  054%=      5-min Rain = 0
KAM3 040329Z 31007KT 24/14 A3012 RMK A01 T02410143  RH  054%=      5-min Rain = 0
KAM3 040330Z 31008KT 24/14 A3012 RMK A01 T02410144  RH  054%=      5-min Rain = 0
KAM3 040331Z 31007KT 24/14 A3012 RMK A01 T02410143  RH  054%=      5-min Rain = 0
KAM3 040332Z 31009KT 24/14 A3012 RMK A01 T02410143  RH  054%=      5-min Rain = 0
KAM3 040333Z 33008KT 24/14 A3012 RMK A01 T02410143  RH  054%=      5-min Rain = 0
KAM3 040334Z 32006KT 24/14 A3012 RMK A01 T02420143  RH  054%=      5-min Rain = 0
KAM3 040335Z 32007KT 24/14 A3012 RMK A01 T02430143  RH  054%=      5-min Rain = 0
KAM3 040336Z 32006KT 24/14 A3012 RMK A01 T02430143  RH  054%=      5-min Rain = 0
KAM3 040337Z 32007KT 24/14 A3012 RMK A01 T02420143  RH  054%=      5-min Rain = 0
KAM3 040338Z 32007KT 24/14 A3012 RMK A01 T02420143  RH  054%=      5-min Rain = 0
KAM3 040339Z 31007KT 24/14 A3012 RMK A01 T02420143  RH  054%=      5-min Rain = 0
KAM3 040340Z 32007KT 24/14 A3012 RMK A01 T02420143  RH  054%=      5-min Rain = 0
KAM3 040341Z 31007KT 24/14 A3012 RMK A01 T02420143  RH  054%=      5-min Rain = 0
KAM3 040342Z 32006KT 24/14 A3012 RMK A01 T02430143  RH  053%=      5-min Rain = 0
KAM3 040343Z 32006KT 24/14 A3012 RMK A01 T02430143  RH  053%=      5-min Rain = 0
KAM3 040344Z 32007KT 24/14 A3012 RMK A01 T02430143  RH  054%=      5-min Rain = 0
KAM3 040345Z 32006KT 24/14 A3012 RMK A01 T02430142  RH  054%=      5-min Rain = 0
KAM3 040346Z 32005KT 24/14 A3012 RMK A01 T02430143  RH  053%=      5-min Rain = 0
KAM3 040347Z 32005KT 24/14 A3012 RMK A01 T02430143  RH  053%=      5-min Rain = 0
KAM3 040348Z 32005KT 24/14 A3012 RMK A01 T02430143  RH  054%=      5-min Rain = 0
KAM3 040349Z 33004KT 24/14 A3012 RMK A01 T02430143  RH  054%=      5-min Rain = 0
KAM3 040350Z 33005KT 24/14 A3012 RMK A01 T02420143  RH  054%=      5-min Rain = 0
KAM3 040351Z 33005KT 24/14 A3012 RMK A01 T02420143  RH  054%=      5-min Rain = 0
KAM3 040352Z 34005KT 24/14 A3012 RMK A01 T02420143  RH  054%=      5-min Rain = 0
KAM3 040353Z 35004KT 24/14 A3012 RMK A01 T02410142  RH  054%=      5-min Rain = 0
KAM3 040354Z 36004KT 24/14 A3012 RMK A01 T02410142  RH  054%=      5-min Rain = 0
KAM3 040355Z 01004KT 24/14 A3012 RMK A01 T02400143  RH  054%=      5-min Rain = 0
KAM3 040356Z 01004KT 24/14 A3012 RMK A01 T02400143  RH  054%=      5-min Rain = 0
KAM3 040357Z 01004KT 24/14 A3012 RMK A01 T02400143  RH  055%=      5-min Rain = 0
KAM3 040358Z 00005KT 24/14 A3012 RMK A01 T02400143  RH  055%=      5-min Rain = 0
KAM3 040359Z 00005KT 24/14 A3012 RMK A01 T02400143  RH  055%=      5-min Rain = 0
KAM3 040400Z 35005KT 24/14 A3012 RMK A01 T02400143  RH  055%=      5-min Rain = 0
KAM3 040401Z 35005KT 24/14 A3012 RMK A01 T02410143  RH  054%=      5-min Rain = 0
KAM3 040402Z 35004KT 24/14 A3012 RMK A01 T02400143  RH  054%=      5-min Rain = 0
KAM3 040403Z 35003KT 24/14 A3012 RMK A01 T02400143  RH  055%=      5-min Rain = 0
KAM3 040404Z 35003KT 24/14 A3012 RMK A01 T02410144  RH  055%=      5-min Rain = 0
KAM3 040405Z 35004KT 24/14 A3012 RMK A01 T02400144  RH  055%=      5-min Rain = 0
KAM3 040406Z 01003KT 24/14 A3012 RMK A01 T02400144  RH  055%=      5-min Rain = 0
KAM3 040407Z 02003KT 24/14 A3012 RMK A01 T02410144  RH  055%=      5-min Rain = 0
KAM3 040408Z 03003KT 24/14 A3012 RMK A01 T02400144  RH  055%=      5-min Rain = 0
KAM3 040409Z 02003KT 24/14 A3012 RMK A01 T02400143  RH  055%=      5-min Rain = 0
KAM3 040410Z 03002KT 24/14 A3012 RMK A01 T02400143  RH  055%=      5-min Rain = 0
KAM3 040411Z 04002KT 24/14 A3012 RMK A01 T02400143  RH  055%=      5-min Rain = 0
KAM3 040412Z 04002KT 24/14 A3012 RMK A01 T02400143  RH  055%=      5-min Rain = 0
KAM3 040413Z 05002KT 24/14 A3012 RMK A01 T02400143  RH  055%=      5-min Rain = 0
KAM3 040414Z 06002KT 24/14 A3012 RMK A01 T02400143  RH  055%=      5-min Rain = 0
KAM3 040415Z 07002KT 24/14 A3012 RMK A01 T02400143  RH  055%=      5-min Rain = 0
KAM3 040416Z 09002KT 24/14 A3012 RMK A01 T02400143  RH  055%=      5-min Rain = 0
KAM3 040417Z 10003KT 24/14 A3012 RMK A01 T02390143  RH  055%=      5-min Rain = 0
KAM3 040418Z 12003KT 24/14 A3012 RMK A01 T02390143  RH  055%=      5-min Rain = 0
KAM3 040419Z 13003KT 24/14 A3012 RMK A01 T02380143  RH  055%=      5-min Rain = 0
KAM3 040420Z 13004KT 24/14 A3012 RMK A01 T02370142  RH  055%=      5-min Rain = 0
KAM3 040421Z 14004KT 24/14 A3012 RMK A01 T02350142  RH  056%=      5-min Rain = 0
KAM3 040422Z 14004KT 23/14 A3012 RMK A01 T02330142  RH  056%=      5-min Rain = 0
KAM3 040423Z 14004KT 23/14 A3012 RMK A01 T02330142  RH  057%=      5-min Rain = 0
KAM3 040424Z 13004KT 23/14 A3012 RMK A01 T02320142  RH  057%=      5-min Rain = 0
KAM3 040425Z 13004KT 23/14 A3012 RMK A01 T02320142  RH  057%=      5-min Rain = 0
KAM3 040426Z 13004KT 23/14 A3012 RMK A01 T02320143  RH  057%=      5-min Rain = 0
KAM3 040427Z 13004KT 23/14 A3013 RMK A01 T02320143  RH  057%=      5-min Rain = 0
KAM3 040428Z 13004KT 23/14 A3013 RMK A01 T02330143  RH  057%=      5-min Rain = 0
KAM3 040429Z 14004KT 23/14 A3013 RMK A01 T02330143  RH  057%=      5-min Rain = 0
KAM3 040430Z 14004KT 23/14 A3013 RMK A01 T02330143  RH  057%=      5-min Rain = 0
KAM3 040431Z 13004KT 23/14 A3013 RMK A01 T02320142  RH  057%=      5-min Rain = 0
KAM3 040432Z 14004KT 23/14 A3013 RMK A01 T02310142  RH  057%=      5-min Rain = 0
KAM3 040433Z 15004KT 23/14 A3013 RMK A01 T02310142  RH  057%=      5-min Rain = 0
KAM3 040434Z 14003KT 23/14 A3013 RMK A01 T02310142  RH  057%=      5-min Rain = 0
KAM3 040435Z 15003KT 23/14 A3013 RMK A01 T02300142  RH  058%=      5-min Rain = 0
KAM3 040436Z 15003KT 23/14 A3013 RMK A01 T02300142  RH  058%=      5-min Rain = 0
KAM3 040437Z 15002KT 23/14 A3013 RMK A01 T02290142  RH  058%=      5-min Rain = 0
KAM3 040438Z 17002KT 23/14 A3013 RMK A01 T02290142  RH  058%=      5-min Rain = 0
KAM3 040439Z 19001KT 23/14 A3013 RMK A01 T02290142  RH  058%=      5-min Rain = 0
KAM3 040440Z 22002KT 23/14 A3013 RMK A01 T02290142  RH  058%=      5-min Rain = 0
KAM3 040441Z 22002KT 23/14 A3013 RMK A01 T02290142  RH  058%=      5-min Rain = 0
KAM3 040442Z 21003KT 23/14 A3013 RMK A01 T02290142  RH  058%=      5-min Rain = 0
KAM3 040443Z 20003KT 23/14 A3013 RMK A01 T02280141  RH  058%=      5-min Rain = 0
KAM3 040444Z 18004KT 23/14 A3013 RMK A01 T02260140  RH  058%=      5-min Rain = 0
KAM3 040445Z 18004KT 23/14 A3013 RMK A01 T02250140  RH  059%=      5-min Rain = 0
KAM3 040446Z 16005KT 22/14 A3013 RMK A01 T02240140  RH  059%=      5-min Rain = 0
KAM3 040447Z 16005KT 22/14 A3013 RMK A01 T02230140  RH  059%=      5-min Rain = 0
KAM3 040448Z 15006KT 22/14 A3013 RMK A01 T02230140  RH  059%=      5-min Rain = 0
KAM3 040449Z 14006KT 22/14 A3013 RMK A01 T02230140  RH  060%=      5-min Rain = 0
KAM3 040450Z 14006KT 22/14 A3013 RMK A01 T02230140  RH  060%=      5-min Rain = 0
KAM3 040451Z 15006KT 22/14 A3013 RMK A01 T02220140  RH  060%=      5-min Rain = 0
KAM3 040452Z 15006KT 22/14 A3013 RMK A01 T02230141  RH  060%=      5-min Rain = 0
KAM3 040453Z 14006KT 22/14 A3013 RMK A01 T02240141  RH  059%=      5-min Rain = 0
KAM3 040454Z 14006KT 22/14 A3013 RMK A01 T02240141  RH  059%=      5-min Rain = 0
KAM3 040455Z 13006KT 23/14 A3013 RMK A01 T02250142  RH  059%=      5-min Rain = 0
KAM3 040456Z 13005KT 23/14 A3013 RMK A01 T02250142  RH  059%=      5-min Rain = 0
KAM3 040457Z 13005KT 23/14 A3013 RMK A01 T02250141  RH  059%=      5-min Rain = 0
KAM3 040458Z 12005KT 23/14 A3013 RMK A01 T02250142  RH  059%=      5-min Rain = 0
KAM3 040459Z 12005KT 23/14 A3013 RMK A01 T02250142  RH  059%=      5-min Rain = 0

Page generated in 0.07 seconds.